<?xml version="1.0" encoding="UTF-8" standalone="no" ?>
<gpx xmlns="http://www.topografix.com/GPX/1/1" xmlns:xsi="http://www.w3.org/2001/XMLSchema-instance" xsi:schemaLocation="http://www.topografix.com/GPX/1/1 http://www.topografix.com/GPX/1/1/gpx.xsd" version="1.1" creator="VisuGPX - https://www.visugpx.com">
  <metadata>
    <name>Petit Ferrand et Grand Ferrand par le Serre du Goutor (Devoluy)</name>
    <desc><![CDATA[[color=red][b]Itinéraire engagé (R4)[/b][/color] au départ du [b]Grand Villard[/b].
.
Description ici: [url]http://www.bivouak.net/topos/topo-2505-grand-ferrand-par-la-crete-de-l-etoile-sport-2.html[/url]
.
Photos ici: [url]https://goo.gl/photos/MJXtJKnvDnyNKCB98[/url]
.
Autres sorties dans le Dévoluy --> [url]http://www.visugpx.com/membres/87/devoluy/?tri=ttr [/url]]]></desc>
  </metadata>
  <wpt lat="44.72555" lon="5.81871">
    <ele>2611.71</ele>
    <name><![CDATA[]]></name>
    <desc><![CDATA[]]></desc>
    <type><![CDATA[Jalon]]></type>
  </wpt>
  <wpt lat="44.72503" lon="5.81775">
    <ele>2665.74</ele>
    <name><![CDATA[]]></name>
    <desc><![CDATA[]]></desc>
    <type><![CDATA[Jalon]]></type>
  </wpt>
  <wpt lat="44.7248" lon="5.81587">
    <ele>2724.74</ele>
    <name><![CDATA[petit ferrand]]></name>
    <desc><![CDATA[]]></desc>
    <type><![CDATA[Jalon]]></type>
  </wpt>
  <wpt lat="44.7216" lon="5.81489">
    <ele>2757.96</ele>
    <name><![CDATA[]]></name>
    <desc><![CDATA[]]></desc>
    <type><![CDATA[Jalon]]></type>
  </wpt>
  <trk>
    <name><![CDATA[2017-07-06 07:54]]></name>
    <desc><![CDATA[<p>Heure de départ: 07/06/2017 07:54</p><p>Heure d'arrivée: 07/06/2017 16:03</p><p>Distance: 13,6 km (08:09)</p><p>Temps déplacement: 04:48</p><p>Vitesse moyenne: 1,66 km/h</p><p>Vitesse moyenne mouv.: 2,82 km/h</p><p>Vitesse Max.: 7,67km/h</p><p>Altitude minimale: 1222 m</p><p>Altitude maximale: 2760 m</p><p>Vitesse de montée: 352,1 m/h</p><p>Vitesse de descente: -550,2 m/h</p><p>Gain d'altitude: 1755 m</p><p>Perte d'altitude: -1740 m</p><p>Temps de montée: 04:59</p><p>Temps de descente: 03:09</p><hr align="center" width="480" style="height: 2px; width: 517px"/>]]></desc>
    <trkseg>
      <trkpt lat="44.71377" lon="5.8814">
        <ele>1222.69</ele>
        <time>2017-07-06T05:54:21Z</time>
      </trkpt>
      <trkpt lat="44.71359" lon="5.8814">
        <ele>1222.58</ele>
        <time>2017-07-06T05:54:41Z</time>
      </trkpt>
      <trkpt lat="44.71345" lon="5.88122">
        <ele>1228.57</ele>
        <time>2017-07-06T05:55:02Z</time>
      </trkpt>
      <trkpt lat="44.71364" lon="5.88116">
        <ele>1240.74</ele>
        <time>2017-07-06T05:55:35Z</time>
      </trkpt>
      <trkpt lat="44.71364" lon="5.8809">
        <ele>1237.62</ele>
        <time>2017-07-06T05:56:17Z</time>
      </trkpt>
      <trkpt lat="44.71357" lon="5.88066">
        <ele>1238.7</ele>
        <time>2017-07-06T05:56:38Z</time>
      </trkpt>
      <trkpt lat="44.7135" lon="5.88042">
        <ele>1234.58</ele>
        <time>2017-07-06T05:57:02Z</time>
      </trkpt>
      <trkpt lat="44.71338" lon="5.88022">
        <ele>1249.94</ele>
        <time>2017-07-06T05:57:27Z</time>
      </trkpt>
      <trkpt lat="44.71332" lon="5.87997">
        <ele>1252.78</ele>
        <time>2017-07-06T05:57:43Z</time>
      </trkpt>
      <trkpt lat="44.71326" lon="5.87973">
        <ele>1252.58</ele>
        <time>2017-07-06T05:58:01Z</time>
      </trkpt>
      <trkpt lat="44.71337" lon="5.87951">
        <ele>1258.53</ele>
        <time>2017-07-06T05:58:22Z</time>
      </trkpt>
      <trkpt lat="44.71351" lon="5.87935">
        <ele>1259.7</ele>
        <time>2017-07-06T05:58:43Z</time>
      </trkpt>
      <trkpt lat="44.71361" lon="5.87913">
        <ele>1264.49</ele>
        <time>2017-07-06T05:58:57Z</time>
      </trkpt>
      <trkpt lat="44.71361" lon="5.87887">
        <ele>1270.94</ele>
        <time>2017-07-06T05:59:13Z</time>
      </trkpt>
      <trkpt lat="44.71341" lon="5.87883">
        <ele>1275.1</ele>
        <time>2017-07-06T05:59:34Z</time>
      </trkpt>
      <trkpt lat="44.71323" lon="5.87881">
        <ele>1271.94</ele>
        <time>2017-07-06T05:59:55Z</time>
      </trkpt>
      <trkpt lat="44.71311" lon="5.87861">
        <ele>1272.94</ele>
        <time>2017-07-06T06:00:13Z</time>
      </trkpt>
      <trkpt lat="44.7131" lon="5.87834">
        <ele>1272.97</ele>
        <time>2017-07-06T06:00:34Z</time>
      </trkpt>
      <trkpt lat="44.713" lon="5.87812">
        <ele>1275.74</ele>
        <time>2017-07-06T06:00:52Z</time>
      </trkpt>
      <trkpt lat="44.71294" lon="5.87787">
        <ele>1282.74</ele>
        <time>2017-07-06T06:01:10Z</time>
      </trkpt>
      <trkpt lat="44.71287" lon="5.87763">
        <ele>1281.75</ele>
        <time>2017-07-06T06:01:30Z</time>
      </trkpt>
      <trkpt lat="44.71276" lon="5.87743">
        <ele>1291.53</ele>
        <time>2017-07-06T06:01:50Z</time>
      </trkpt>
      <trkpt lat="44.71257" lon="5.87738">
        <ele>1291.54</ele>
        <time>2017-07-06T06:02:08Z</time>
      </trkpt>
      <trkpt lat="44.71238" lon="5.87738">
        <ele>1294.29</ele>
        <time>2017-07-06T06:02:24Z</time>
      </trkpt>
      <trkpt lat="44.71219" lon="5.87736">
        <ele>1301.53</ele>
        <time>2017-07-06T06:02:42Z</time>
      </trkpt>
      <trkpt lat="44.71203" lon="5.87727">
        <ele>1303.74</ele>
        <time>2017-07-06T06:03:00Z</time>
      </trkpt>
      <trkpt lat="44.71212" lon="5.87705">
        <ele>1303.74</ele>
        <time>2017-07-06T06:03:28Z</time>
      </trkpt>
      <trkpt lat="44.71225" lon="5.87685">
        <ele>1307.75</ele>
        <time>2017-07-06T06:03:49Z</time>
      </trkpt>
      <trkpt lat="44.71233" lon="5.87659">
        <ele>1311.55</ele>
        <time>2017-07-06T06:04:10Z</time>
      </trkpt>
      <trkpt lat="44.71239" lon="5.87634">
        <ele>1319.5</ele>
        <time>2017-07-06T06:04:28Z</time>
      </trkpt>
      <trkpt lat="44.71244" lon="5.87608">
        <ele>1325.54</ele>
        <time>2017-07-06T06:04:48Z</time>
      </trkpt>
      <trkpt lat="44.71243" lon="5.87582">
        <ele>1328.94</ele>
        <time>2017-07-06T06:05:09Z</time>
      </trkpt>
      <trkpt lat="44.71252" lon="5.87559">
        <ele>1326.5</ele>
        <time>2017-07-06T06:05:27Z</time>
      </trkpt>
      <trkpt lat="44.71263" lon="5.87539">
        <ele>1330.78</ele>
        <time>2017-07-06T06:05:42Z</time>
      </trkpt>
      <trkpt lat="44.71281" lon="5.87535">
        <ele>1330.74</ele>
        <time>2017-07-06T06:06:05Z</time>
      </trkpt>
      <trkpt lat="44.71293" lon="5.87516">
        <ele>1334.54</ele>
        <time>2017-07-06T06:06:18Z</time>
      </trkpt>
      <trkpt lat="44.71309" lon="5.87501">
        <ele>1333.57</ele>
        <time>2017-07-06T06:06:34Z</time>
      </trkpt>
      <trkpt lat="44.71328" lon="5.87496">
        <ele>1332.37</ele>
        <time>2017-07-06T06:06:48Z</time>
      </trkpt>
      <trkpt lat="44.71342" lon="5.87478">
        <ele>1332.5</ele>
        <time>2017-07-06T06:07:05Z</time>
      </trkpt>
      <trkpt lat="44.71353" lon="5.87458">
        <ele>1336.69</ele>
        <time>2017-07-06T06:07:21Z</time>
      </trkpt>
      <trkpt lat="44.71367" lon="5.87441">
        <ele>1339.73</ele>
        <time>2017-07-06T06:07:38Z</time>
      </trkpt>
      <trkpt lat="44.71381" lon="5.87425">
        <ele>1342.73</ele>
        <time>2017-07-06T06:07:53Z</time>
      </trkpt>
      <trkpt lat="44.71392" lon="5.87403">
        <ele>1346.5</ele>
        <time>2017-07-06T06:08:10Z</time>
      </trkpt>
      <trkpt lat="44.714" lon="5.87378">
        <ele>1352.54</ele>
        <time>2017-07-06T06:08:27Z</time>
      </trkpt>
      <trkpt lat="44.71406" lon="5.87353">
        <ele>1352.73</ele>
        <time>2017-07-06T06:08:54Z</time>
      </trkpt>
      <trkpt lat="44.71424" lon="5.8735">
        <ele>1359.73</ele>
        <time>2017-07-06T06:09:11Z</time>
      </trkpt>
      <trkpt lat="44.71438" lon="5.87333">
        <ele>1359.73</ele>
        <time>2017-07-06T06:09:34Z</time>
      </trkpt>
      <trkpt lat="44.71444" lon="5.87309">
        <ele>1369.53</ele>
        <time>2017-07-06T06:09:56Z</time>
      </trkpt>
      <trkpt lat="44.71453" lon="5.87286">
        <ele>1370.75</ele>
        <time>2017-07-06T06:10:21Z</time>
      </trkpt>
      <trkpt lat="44.71462" lon="5.87263">
        <ele>1374.93</ele>
        <time>2017-07-06T06:10:45Z</time>
      </trkpt>
      <trkpt lat="44.71471" lon="5.87239">
        <ele>1379.7</ele>
        <time>2017-07-06T06:11:07Z</time>
      </trkpt>
      <trkpt lat="44.71479" lon="5.87214">
        <ele>1379.66</ele>
        <time>2017-07-06T06:11:29Z</time>
      </trkpt>
      <trkpt lat="44.71489" lon="5.87193">
        <ele>1387.54</ele>
        <time>2017-07-06T06:11:56Z</time>
      </trkpt>
      <trkpt lat="44.71497" lon="5.8717">
        <ele>1390.73</ele>
        <time>2017-07-06T06:12:17Z</time>
      </trkpt>
      <trkpt lat="44.71497" lon="5.87143">
        <ele>1395.7</ele>
        <time>2017-07-06T06:12:32Z</time>
      </trkpt>
      <trkpt lat="44.71501" lon="5.87119">
        <ele>1399.73</ele>
        <time>2017-07-06T06:12:50Z</time>
      </trkpt>
      <trkpt lat="44.71506" lon="5.87092">
        <ele>1400.53</ele>
        <time>2017-07-06T06:13:13Z</time>
      </trkpt>
      <trkpt lat="44.71513" lon="5.87067">
        <ele>1401.54</ele>
        <time>2017-07-06T06:13:38Z</time>
      </trkpt>
      <trkpt lat="44.71518" lon="5.87042">
        <ele>1405.66</ele>
        <time>2017-07-06T06:13:56Z</time>
      </trkpt>
      <trkpt lat="44.71519" lon="5.87015">
        <ele>1415.34</ele>
        <time>2017-07-06T06:14:12Z</time>
      </trkpt>
      <trkpt lat="44.71524" lon="5.8699">
        <ele>1415.71</ele>
        <time>2017-07-06T06:14:28Z</time>
      </trkpt>
      <trkpt lat="44.71526" lon="5.86965">
        <ele>1423.69</ele>
        <time>2017-07-06T06:14:48Z</time>
      </trkpt>
      <trkpt lat="44.7153" lon="5.86939">
        <ele>1424.78</ele>
        <time>2017-07-06T06:15:07Z</time>
      </trkpt>
      <trkpt lat="44.71538" lon="5.86915">
        <ele>1427.54</ele>
        <time>2017-07-06T06:15:27Z</time>
      </trkpt>
      <trkpt lat="44.71546" lon="5.86891">
        <ele>1428.53</ele>
        <time>2017-07-06T06:15:45Z</time>
      </trkpt>
      <trkpt lat="44.71552" lon="5.86866">
        <ele>1428.78</ele>
        <time>2017-07-06T06:16:00Z</time>
      </trkpt>
      <trkpt lat="44.71566" lon="5.86847">
        <ele>1423.73</ele>
        <time>2017-07-06T06:16:20Z</time>
      </trkpt>
      <trkpt lat="44.71568" lon="5.86821">
        <ele>1433.86</ele>
        <time>2017-07-06T06:16:40Z</time>
      </trkpt>
      <trkpt lat="44.71571" lon="5.86796">
        <ele>1434.55</ele>
        <time>2017-07-06T06:16:59Z</time>
      </trkpt>
      <trkpt lat="44.71579" lon="5.86773">
        <ele>1444.74</ele>
        <time>2017-07-06T06:17:20Z</time>
      </trkpt>
      <trkpt lat="44.71582" lon="5.86747">
        <ele>1447.71</ele>
        <time>2017-07-06T06:17:41Z</time>
      </trkpt>
      <trkpt lat="44.71589" lon="5.86723">
        <ele>1451.69</ele>
        <time>2017-07-06T06:18:03Z</time>
      </trkpt>
      <trkpt lat="44.716" lon="5.86702">
        <ele>1451.71</ele>
        <time>2017-07-06T06:18:18Z</time>
      </trkpt>
      <trkpt lat="44.71603" lon="5.86676">
        <ele>1457.58</ele>
        <time>2017-07-06T06:18:35Z</time>
      </trkpt>
      <trkpt lat="44.71609" lon="5.86652">
        <ele>1458.73</ele>
        <time>2017-07-06T06:18:52Z</time>
      </trkpt>
      <trkpt lat="44.71617" lon="5.86628">
        <ele>1462.49</ele>
        <time>2017-07-06T06:19:13Z</time>
      </trkpt>
      <trkpt lat="44.71615" lon="5.86601">
        <ele>1468.77</ele>
        <time>2017-07-06T06:19:36Z</time>
      </trkpt>
      <trkpt lat="44.71613" lon="5.86576">
        <ele>1476.62</ele>
        <time>2017-07-06T06:19:57Z</time>
      </trkpt>
      <trkpt lat="44.71613" lon="5.8655">
        <ele>1473.63</ele>
        <time>2017-07-06T06:20:17Z</time>
      </trkpt>
      <trkpt lat="44.71612" lon="5.86524">
        <ele>1477.7</ele>
        <time>2017-07-06T06:20:42Z</time>
      </trkpt>
      <trkpt lat="44.71616" lon="5.86498">
        <ele>1479.75</ele>
        <time>2017-07-06T06:21:01Z</time>
      </trkpt>
      <trkpt lat="44.71622" lon="5.86475">
        <ele>1485.73</ele>
        <time>2017-07-06T06:21:21Z</time>
      </trkpt>
      <trkpt lat="44.71632" lon="5.86453">
        <ele>1486.7</ele>
        <time>2017-07-06T06:21:42Z</time>
      </trkpt>
      <trkpt lat="44.71642" lon="5.86431">
        <ele>1489.54</ele>
        <time>2017-07-06T06:21:58Z</time>
      </trkpt>
      <trkpt lat="44.71649" lon="5.86407">
        <ele>1490.73</ele>
        <time>2017-07-06T06:22:17Z</time>
      </trkpt>
      <trkpt lat="44.71654" lon="5.86381">
        <ele>1491.53</ele>
        <time>2017-07-06T06:22:31Z</time>
      </trkpt>
      <trkpt lat="44.71657" lon="5.86355">
        <ele>1493.74</ele>
        <time>2017-07-06T06:22:50Z</time>
      </trkpt>
      <trkpt lat="44.71669" lon="5.86335">
        <ele>1493.98</ele>
        <time>2017-07-06T06:23:07Z</time>
      </trkpt>
      <trkpt lat="44.71667" lon="5.86309">
        <ele>1492.77</ele>
        <time>2017-07-06T06:23:25Z</time>
      </trkpt>
      <trkpt lat="44.71666" lon="5.86284">
        <ele>1496.54</ele>
        <time>2017-07-06T06:23:43Z</time>
      </trkpt>
      <trkpt lat="44.71666" lon="5.86258">
        <ele>1502.49</ele>
        <time>2017-07-06T06:24:04Z</time>
      </trkpt>
      <trkpt lat="44.71665" lon="5.86232">
        <ele>1500.53</ele>
        <time>2017-07-06T06:24:35Z</time>
      </trkpt>
      <trkpt lat="44.71667" lon="5.86205">
        <ele>1509.73</ele>
        <time>2017-07-06T06:25:02Z</time>
      </trkpt>
      <trkpt lat="44.71664" lon="5.8618">
        <ele>1513.51</ele>
        <time>2017-07-06T06:25:20Z</time>
      </trkpt>
      <trkpt lat="44.71662" lon="5.86155">
        <ele>1511.95</ele>
        <time>2017-07-06T06:25:39Z</time>
      </trkpt>
      <trkpt lat="44.71656" lon="5.8613">
        <ele>1512.74</ele>
        <time>2017-07-06T06:26:01Z</time>
      </trkpt>
      <trkpt lat="44.71652" lon="5.86105">
        <ele>1519.89</ele>
        <time>2017-07-06T06:26:22Z</time>
      </trkpt>
      <trkpt lat="44.7167" lon="5.86097">
        <ele>1523.93</ele>
        <time>2017-07-06T06:27:04Z</time>
      </trkpt>
      <trkpt lat="44.7168" lon="5.86076">
        <ele>1524.85</ele>
        <time>2017-07-06T06:27:32Z</time>
      </trkpt>
      <trkpt lat="44.71688" lon="5.86053">
        <ele>1529.78</ele>
        <time>2017-07-06T06:27:52Z</time>
      </trkpt>
      <trkpt lat="44.71698" lon="5.86031">
        <ele>1528.75</ele>
        <time>2017-07-06T06:28:13Z</time>
      </trkpt>
      <trkpt lat="44.71707" lon="5.86005">
        <ele>1525.89</ele>
        <time>2017-07-06T06:28:43Z</time>
      </trkpt>
      <trkpt lat="44.71717" lon="5.85981">
        <ele>1525.94</ele>
        <time>2017-07-06T06:29:13Z</time>
      </trkpt>
      <trkpt lat="44.71725" lon="5.85958">
        <ele>1532.5</ele>
        <time>2017-07-06T06:29:51Z</time>
      </trkpt>
      <trkpt lat="44.71736" lon="5.85935">
        <ele>1539.09</ele>
        <time>2017-07-06T06:30:18Z</time>
      </trkpt>
      <trkpt lat="44.71739" lon="5.8591">
        <ele>1538.9</ele>
        <time>2017-07-06T06:30:42Z</time>
      </trkpt>
      <trkpt lat="44.71744" lon="5.85884">
        <ele>1552.74</ele>
        <time>2017-07-06T06:31:26Z</time>
      </trkpt>
      <trkpt lat="44.71747" lon="5.85858">
        <ele>1551.72</ele>
        <time>2017-07-06T06:31:51Z</time>
      </trkpt>
      <trkpt lat="44.71756" lon="5.85835">
        <ele>1551.9</ele>
        <time>2017-07-06T06:32:13Z</time>
      </trkpt>
      <trkpt lat="44.71761" lon="5.8581">
        <ele>1556.5</ele>
        <time>2017-07-06T06:33:03Z</time>
      </trkpt>
      <trkpt lat="44.71759" lon="5.85784">
        <ele>1562.91</ele>
        <time>2017-07-06T06:33:53Z</time>
      </trkpt>
      <trkpt lat="44.71747" lon="5.85765">
        <ele>1565.75</ele>
        <time>2017-07-06T06:34:17Z</time>
      </trkpt>
      <trkpt lat="44.71733" lon="5.8575">
        <ele>1566.55</ele>
        <time>2017-07-06T06:34:40Z</time>
      </trkpt>
      <trkpt lat="44.71726" lon="5.85726">
        <ele>1574.73</ele>
        <time>2017-07-06T06:35:24Z</time>
      </trkpt>
      <trkpt lat="44.71725" lon="5.85698">
        <ele>1577.87</ele>
        <time>2017-07-06T06:35:55Z</time>
      </trkpt>
      <trkpt lat="44.71721" lon="5.85673">
        <ele>1587.33</ele>
        <time>2017-07-06T06:36:45Z</time>
      </trkpt>
      <trkpt lat="44.71709" lon="5.85655">
        <ele>1610.98</ele>
        <time>2017-07-06T06:38:12Z</time>
      </trkpt>
      <trkpt lat="44.71703" lon="5.8563">
        <ele>1607.01</ele>
        <time>2017-07-06T06:38:36Z</time>
      </trkpt>
      <trkpt lat="44.71716" lon="5.85611">
        <ele>1615.69</ele>
        <time>2017-07-06T06:39:27Z</time>
      </trkpt>
      <trkpt lat="44.71727" lon="5.85589">
        <ele>1616.74</ele>
        <time>2017-07-06T06:40:02Z</time>
      </trkpt>
      <trkpt lat="44.7173" lon="5.85564">
        <ele>1618.75</ele>
        <time>2017-07-06T06:40:40Z</time>
      </trkpt>
      <trkpt lat="44.71737" lon="5.85539">
        <ele>1634.31</ele>
        <time>2017-07-06T06:41:37Z</time>
      </trkpt>
      <trkpt lat="44.7174" lon="5.85515">
        <ele>1635.76</ele>
        <time>2017-07-06T06:42:05Z</time>
      </trkpt>
      <trkpt lat="44.71748" lon="5.85491">
        <ele>1635.74</ele>
        <time>2017-07-06T06:42:29Z</time>
      </trkpt>
      <trkpt lat="44.71748" lon="5.85465">
        <ele>1638.66</ele>
        <time>2017-07-06T06:42:53Z</time>
      </trkpt>
      <trkpt lat="44.71742" lon="5.85439">
        <ele>1644.3</ele>
        <time>2017-07-06T06:43:14Z</time>
      </trkpt>
      <trkpt lat="44.71739" lon="5.85414">
        <ele>1644.55</ele>
        <time>2017-07-06T06:43:49Z</time>
      </trkpt>
      <trkpt lat="44.71735" lon="5.85388">
        <ele>1651.53</ele>
        <time>2017-07-06T06:44:07Z</time>
      </trkpt>
      <trkpt lat="44.71742" lon="5.85363">
        <ele>1654.74</ele>
        <time>2017-07-06T06:44:31Z</time>
      </trkpt>
      <trkpt lat="44.71742" lon="5.85335">
        <ele>1666.17</ele>
        <time>2017-07-06T06:47:29Z</time>
      </trkpt>
      <trkpt lat="44.71745" lon="5.8531">
        <ele>1662.7</ele>
        <time>2017-07-06T06:47:44Z</time>
      </trkpt>
      <trkpt lat="44.7175" lon="5.85283">
        <ele>1666.5</ele>
        <time>2017-07-06T06:48:05Z</time>
      </trkpt>
      <trkpt lat="44.71759" lon="5.8526">
        <ele>1667.7</ele>
        <time>2017-07-06T06:48:44Z</time>
      </trkpt>
      <trkpt lat="44.71762" lon="5.85234">
        <ele>1676.49</ele>
        <time>2017-07-06T06:49:15Z</time>
      </trkpt>
      <trkpt lat="44.71755" lon="5.85211">
        <ele>1681.94</ele>
        <time>2017-07-06T06:49:36Z</time>
      </trkpt>
      <trkpt lat="44.71746" lon="5.85189">
        <ele>1684.73</ele>
        <time>2017-07-06T06:50:01Z</time>
      </trkpt>
      <trkpt lat="44.71739" lon="5.85165">
        <ele>1699.54</ele>
        <time>2017-07-06T06:50:51Z</time>
      </trkpt>
      <trkpt lat="44.7173" lon="5.85143">
        <ele>1706.71</ele>
        <time>2017-07-06T06:51:42Z</time>
      </trkpt>
      <trkpt lat="44.71722" lon="5.85119">
        <ele>1709.55</ele>
        <time>2017-07-06T06:52:15Z</time>
      </trkpt>
      <trkpt lat="44.71712" lon="5.85098">
        <ele>1713.76</ele>
        <time>2017-07-06T06:52:42Z</time>
      </trkpt>
      <trkpt lat="44.71698" lon="5.8508">
        <ele>1716.77</ele>
        <time>2017-07-06T06:53:10Z</time>
      </trkpt>
      <trkpt lat="44.71693" lon="5.85055">
        <ele>1727.93</ele>
        <time>2017-07-06T06:53:48Z</time>
      </trkpt>
      <trkpt lat="44.71694" lon="5.85029">
        <ele>1726.73</ele>
        <time>2017-07-06T06:54:14Z</time>
      </trkpt>
      <trkpt lat="44.71688" lon="5.85005">
        <ele>1738.7</ele>
        <time>2017-07-06T06:54:43Z</time>
      </trkpt>
      <trkpt lat="44.717" lon="5.84986">
        <ele>1745.14</ele>
        <time>2017-07-06T06:55:27Z</time>
      </trkpt>
      <trkpt lat="44.71716" lon="5.84975">
        <ele>1755.74</ele>
        <time>2017-07-06T06:55:50Z</time>
      </trkpt>
      <trkpt lat="44.71723" lon="5.8495">
        <ele>1765.74</ele>
        <time>2017-07-06T06:56:39Z</time>
      </trkpt>
      <trkpt lat="44.71741" lon="5.84949">
        <ele>1764.77</ele>
        <time>2017-07-06T06:57:15Z</time>
      </trkpt>
      <trkpt lat="44.71756" lon="5.84935">
        <ele>1773.78</ele>
        <time>2017-07-06T06:57:54Z</time>
      </trkpt>
      <trkpt lat="44.71772" lon="5.84921">
        <ele>1781.77</ele>
        <time>2017-07-06T06:58:23Z</time>
      </trkpt>
      <trkpt lat="44.71789" lon="5.84912">
        <ele>1784.76</ele>
        <time>2017-07-06T06:58:51Z</time>
      </trkpt>
      <trkpt lat="44.71807" lon="5.84903">
        <ele>1784.96</ele>
        <time>2017-07-06T06:59:14Z</time>
      </trkpt>
      <trkpt lat="44.7182" lon="5.84884">
        <ele>1795.74</ele>
        <time>2017-07-06T06:59:52Z</time>
      </trkpt>
      <trkpt lat="44.71821" lon="5.84858">
        <ele>1808.89</ele>
        <time>2017-07-06T07:01:49Z</time>
      </trkpt>
      <trkpt lat="44.71837" lon="5.84844">
        <ele>1806.98</ele>
        <time>2017-07-06T07:02:27Z</time>
      </trkpt>
      <trkpt lat="44.71839" lon="5.84815">
        <ele>1816.09</ele>
        <time>2017-07-06T07:03:03Z</time>
      </trkpt>
      <trkpt lat="44.7184" lon="5.8479">
        <ele>1827.13</ele>
        <time>2017-07-06T07:03:52Z</time>
      </trkpt>
      <trkpt lat="44.71839" lon="5.84762">
        <ele>1835.7</ele>
        <time>2017-07-06T07:04:37Z</time>
      </trkpt>
      <trkpt lat="44.71827" lon="5.84742">
        <ele>1850.87</ele>
        <time>2017-07-06T07:05:28Z</time>
      </trkpt>
      <trkpt lat="44.71814" lon="5.84721">
        <ele>1856.54</ele>
        <time>2017-07-06T07:06:22Z</time>
      </trkpt>
      <trkpt lat="44.71806" lon="5.84697">
        <ele>1867.35</ele>
        <time>2017-07-06T07:07:10Z</time>
      </trkpt>
      <trkpt lat="44.71803" lon="5.84672">
        <ele>1877.52</ele>
        <time>2017-07-06T07:07:59Z</time>
      </trkpt>
      <trkpt lat="44.71805" lon="5.84646">
        <ele>1884.14</ele>
        <time>2017-07-06T07:08:56Z</time>
      </trkpt>
      <trkpt lat="44.7182" lon="5.8463">
        <ele>1889.49</ele>
        <time>2017-07-06T07:09:31Z</time>
      </trkpt>
      <trkpt lat="44.71823" lon="5.84604">
        <ele>1895.47</ele>
        <time>2017-07-06T07:10:15Z</time>
      </trkpt>
      <trkpt lat="44.71815" lon="5.8458">
        <ele>1909.33</ele>
        <time>2017-07-06T07:13:38Z</time>
      </trkpt>
      <trkpt lat="44.71828" lon="5.8456">
        <ele>1901.94</ele>
        <time>2017-07-06T07:15:17Z</time>
      </trkpt>
      <trkpt lat="44.71837" lon="5.84539">
        <ele>1906.72</ele>
        <time>2017-07-06T07:15:57Z</time>
      </trkpt>
      <trkpt lat="44.7185" lon="5.84521">
        <ele>1911.76</ele>
        <time>2017-07-06T07:16:28Z</time>
      </trkpt>
      <trkpt lat="44.71863" lon="5.84503">
        <ele>1913.93</ele>
        <time>2017-07-06T07:16:53Z</time>
      </trkpt>
      <trkpt lat="44.71878" lon="5.84488">
        <ele>1918.13</ele>
        <time>2017-07-06T07:17:16Z</time>
      </trkpt>
      <trkpt lat="44.71866" lon="5.8447">
        <ele>1918.95</ele>
        <time>2017-07-06T07:17:33Z</time>
      </trkpt>
      <trkpt lat="44.71862" lon="5.84443">
        <ele>1925.3</ele>
        <time>2017-07-06T07:18:15Z</time>
      </trkpt>
      <trkpt lat="44.71878" lon="5.84432">
        <ele>1929.94</ele>
        <time>2017-07-06T07:18:49Z</time>
      </trkpt>
      <trkpt lat="44.71891" lon="5.84413">
        <ele>1936.34</ele>
        <time>2017-07-06T07:19:45Z</time>
      </trkpt>
      <trkpt lat="44.71899" lon="5.8439">
        <ele>1945.78</ele>
        <time>2017-07-06T07:21:05Z</time>
      </trkpt>
      <trkpt lat="44.71918" lon="5.84382">
        <ele>1958.22</ele>
        <time>2017-07-06T07:21:54Z</time>
      </trkpt>
      <trkpt lat="44.71935" lon="5.84358">
        <ele>1813.98</ele>
        <time>2017-07-06T07:23:51Z</time>
      </trkpt>
      <trkpt lat="44.71943" lon="5.84336">
        <ele>1985.78</ele>
        <time>2017-07-06T07:25:25Z</time>
      </trkpt>
      <trkpt lat="44.71952" lon="5.84313">
        <ele>1996.66</ele>
        <time>2017-07-06T07:25:55Z</time>
      </trkpt>
      <trkpt lat="44.7209" lon="5.84037">
        <ele>2094.75</ele>
        <time>2017-07-06T07:43:07Z</time>
      </trkpt>
      <trkpt lat="44.72107" lon="5.84028">
        <ele>2124.3</ele>
        <time>2017-07-06T07:45:02Z</time>
      </trkpt>
      <trkpt lat="44.72118" lon="5.84007">
        <ele>2123.99</ele>
        <time>2017-07-06T07:45:37Z</time>
      </trkpt>
      <trkpt lat="44.72135" lon="5.83999">
        <ele>2134.5</ele>
        <time>2017-07-06T07:46:05Z</time>
      </trkpt>
      <trkpt lat="44.7215" lon="5.83983">
        <ele>2133.83</ele>
        <time>2017-07-06T07:46:32Z</time>
      </trkpt>
      <trkpt lat="44.72165" lon="5.8397">
        <ele>2136.74</ele>
        <time>2017-07-06T07:47:05Z</time>
      </trkpt>
      <trkpt lat="44.72176" lon="5.83949">
        <ele>2145.49</ele>
        <time>2017-07-06T07:47:29Z</time>
      </trkpt>
      <trkpt lat="44.7219" lon="5.83933">
        <ele>2148.94</ele>
        <time>2017-07-06T07:48:04Z</time>
      </trkpt>
      <trkpt lat="44.72201" lon="5.83913">
        <ele>2153.33</ele>
        <time>2017-07-06T07:48:37Z</time>
      </trkpt>
      <trkpt lat="44.72205" lon="5.83888">
        <ele>2161.74</ele>
        <time>2017-07-06T07:49:20Z</time>
      </trkpt>
      <trkpt lat="44.7221" lon="5.83863">
        <ele>2170.51</ele>
        <time>2017-07-06T07:49:54Z</time>
      </trkpt>
      <trkpt lat="44.7221" lon="5.83835">
        <ele>2180.6</ele>
        <time>2017-07-06T07:50:41Z</time>
      </trkpt>
      <trkpt lat="44.72228" lon="5.83829">
        <ele>2182.5</ele>
        <time>2017-07-06T07:52:06Z</time>
      </trkpt>
      <trkpt lat="44.72242" lon="5.83811">
        <ele>2190.31</ele>
        <time>2017-07-06T07:52:29Z</time>
      </trkpt>
      <trkpt lat="44.72259" lon="5.83802">
        <ele>2193.76</ele>
        <time>2017-07-06T07:53:09Z</time>
      </trkpt>
      <trkpt lat="44.72277" lon="5.83798">
        <ele>2204.54</ele>
        <time>2017-07-06T07:55:27Z</time>
      </trkpt>
      <trkpt lat="44.72285" lon="5.83776">
        <ele>2208.5</ele>
        <time>2017-07-06T07:56:04Z</time>
      </trkpt>
      <trkpt lat="44.72296" lon="5.83754">
        <ele>2215.65</ele>
        <time>2017-07-06T07:56:33Z</time>
      </trkpt>
      <trkpt lat="44.72311" lon="5.83739">
        <ele>2226.5</ele>
        <time>2017-07-06T07:57:26Z</time>
      </trkpt>
      <trkpt lat="44.72329" lon="5.83733">
        <ele>2232.33</ele>
        <time>2017-07-06T07:58:00Z</time>
      </trkpt>
      <trkpt lat="44.72336" lon="5.83709">
        <ele>2238.74</ele>
        <time>2017-07-06T07:58:52Z</time>
      </trkpt>
      <trkpt lat="44.72346" lon="5.83686">
        <ele>2241.33</ele>
        <time>2017-07-06T07:59:24Z</time>
      </trkpt>
      <trkpt lat="44.72349" lon="5.8366">
        <ele>2254.58</ele>
        <time>2017-07-06T08:00:04Z</time>
      </trkpt>
      <trkpt lat="44.72365" lon="5.83646">
        <ele>2252.74</ele>
        <time>2017-07-06T08:02:50Z</time>
      </trkpt>
      <trkpt lat="44.72374" lon="5.83623">
        <ele>2259.75</ele>
        <time>2017-07-06T08:03:14Z</time>
      </trkpt>
      <trkpt lat="44.72389" lon="5.83608">
        <ele>2267.71</ele>
        <time>2017-07-06T08:03:53Z</time>
      </trkpt>
      <trkpt lat="44.72402" lon="5.83589">
        <ele>2275.56</ele>
        <time>2017-07-06T08:04:32Z</time>
      </trkpt>
      <trkpt lat="44.72418" lon="5.83577">
        <ele>2279.15</ele>
        <time>2017-07-06T08:06:53Z</time>
      </trkpt>
      <trkpt lat="44.72423" lon="5.83552">
        <ele>2267.08</ele>
        <time>2017-07-06T08:08:39Z</time>
      </trkpt>
      <trkpt lat="44.72425" lon="5.83527">
        <ele>2289.69</ele>
        <time>2017-07-06T08:09:21Z</time>
      </trkpt>
      <trkpt lat="44.72434" lon="5.83503">
        <ele>2292.94</ele>
        <time>2017-07-06T08:10:00Z</time>
      </trkpt>
      <trkpt lat="44.72439" lon="5.83478">
        <ele>2294.3</ele>
        <time>2017-07-06T08:10:55Z</time>
      </trkpt>
      <trkpt lat="44.72442" lon="5.83451">
        <ele>2297.7</ele>
        <time>2017-07-06T08:12:00Z</time>
      </trkpt>
      <trkpt lat="44.72451" lon="5.83428">
        <ele>2307.58</ele>
        <time>2017-07-06T08:12:43Z</time>
      </trkpt>
      <trkpt lat="44.7246" lon="5.83403">
        <ele>2316.34</ele>
        <time>2017-07-06T08:13:24Z</time>
      </trkpt>
      <trkpt lat="44.72466" lon="5.83379">
        <ele>2320.53</ele>
        <time>2017-07-06T08:14:37Z</time>
      </trkpt>
      <trkpt lat="44.72473" lon="5.83355">
        <ele>2322.69</ele>
        <time>2017-07-06T08:15:45Z</time>
      </trkpt>
      <trkpt lat="44.72473" lon="5.83329">
        <ele>2340.74</ele>
        <time>2017-07-06T08:16:24Z</time>
      </trkpt>
      <trkpt lat="44.72482" lon="5.83307">
        <ele>2337.98</ele>
        <time>2017-07-06T08:17:10Z</time>
      </trkpt>
      <trkpt lat="44.72492" lon="5.83284">
        <ele>2343.56</ele>
        <time>2017-07-06T08:18:10Z</time>
      </trkpt>
      <trkpt lat="44.72507" lon="5.83268">
        <ele>2340.5</ele>
        <time>2017-07-06T08:18:39Z</time>
      </trkpt>
      <trkpt lat="44.72492" lon="5.83251">
        <ele>2354.5</ele>
        <time>2017-07-06T08:20:21Z</time>
      </trkpt>
      <trkpt lat="44.72484" lon="5.83227">
        <ele>2354.82</ele>
        <time>2017-07-06T08:20:44Z</time>
      </trkpt>
      <trkpt lat="44.72479" lon="5.83203">
        <ele>2357.46</ele>
        <time>2017-07-06T08:21:03Z</time>
      </trkpt>
      <trkpt lat="44.7249" lon="5.83183">
        <ele>2352.58</ele>
        <time>2017-07-06T08:21:52Z</time>
      </trkpt>
      <trkpt lat="44.72501" lon="5.83161">
        <ele>2362.73</ele>
        <time>2017-07-06T08:22:10Z</time>
      </trkpt>
      <trkpt lat="44.72503" lon="5.83136">
        <ele>2361.51</ele>
        <time>2017-07-06T08:23:15Z</time>
      </trkpt>
      <trkpt lat="44.72518" lon="5.83118">
        <ele>2360.94</ele>
        <time>2017-07-06T08:24:00Z</time>
      </trkpt>
      <trkpt lat="44.72519" lon="5.83093">
        <ele>2367.58</ele>
        <time>2017-07-06T08:24:28Z</time>
      </trkpt>
      <trkpt lat="44.72517" lon="5.83067">
        <ele>2379.38</ele>
        <time>2017-07-06T08:25:48Z</time>
      </trkpt>
      <trkpt lat="44.72525" lon="5.83043">
        <ele>2379.75</ele>
        <time>2017-07-06T08:26:34Z</time>
      </trkpt>
      <trkpt lat="44.72528" lon="5.83018">
        <ele>2397.34</ele>
        <time>2017-07-06T08:27:22Z</time>
      </trkpt>
      <trkpt lat="44.7254" lon="5.82999">
        <ele>2402.94</ele>
        <time>2017-07-06T08:28:15Z</time>
      </trkpt>
      <trkpt lat="44.72534" lon="5.82974">
        <ele>2223.12</ele>
        <time>2017-07-06T08:29:13Z</time>
      </trkpt>
      <trkpt lat="44.7253" lon="5.82949">
        <ele>2389.55</ele>
        <time>2017-07-06T08:29:36Z</time>
      </trkpt>
      <trkpt lat="44.72538" lon="5.82925">
        <ele>2412.34</ele>
        <time>2017-07-06T08:30:35Z</time>
      </trkpt>
      <trkpt lat="44.72556" lon="5.82925">
        <ele>2408.9</ele>
        <time>2017-07-06T08:30:55Z</time>
      </trkpt>
      <trkpt lat="44.7257" lon="5.82909">
        <ele>2396.74</ele>
        <time>2017-07-06T08:33:37Z</time>
      </trkpt>
      <trkpt lat="44.72578" lon="5.82885">
        <ele>2419.7</ele>
        <time>2017-07-06T08:34:40Z</time>
      </trkpt>
      <trkpt lat="44.72595" lon="5.82874">
        <ele>2421.53</ele>
        <time>2017-07-06T08:36:06Z</time>
      </trkpt>
      <trkpt lat="44.72609" lon="5.82856">
        <ele>2438.72</ele>
        <time>2017-07-06T08:41:41Z</time>
      </trkpt>
      <trkpt lat="44.72627" lon="5.8285">
        <ele>2432.69</ele>
        <time>2017-07-06T08:42:18Z</time>
      </trkpt>
      <trkpt lat="44.72638" lon="5.82829">
        <ele>2438.77</ele>
        <time>2017-07-06T08:42:54Z</time>
      </trkpt>
      <trkpt lat="44.72646" lon="5.82806">
        <ele>2451.77</ele>
        <time>2017-07-06T08:43:33Z</time>
      </trkpt>
      <trkpt lat="44.72648" lon="5.82779">
        <ele>2455.55</ele>
        <time>2017-07-06T08:44:11Z</time>
      </trkpt>
      <trkpt lat="44.72644" lon="5.82754">
        <ele>2445.54</ele>
        <time>2017-07-06T08:48:08Z</time>
      </trkpt>
      <trkpt lat="44.7264" lon="5.82729">
        <ele>2440.58</ele>
        <time>2017-07-06T08:48:44Z</time>
      </trkpt>
      <trkpt lat="44.72643" lon="5.82703">
        <ele>2438.55</ele>
        <time>2017-07-06T08:49:44Z</time>
      </trkpt>
      <trkpt lat="44.72643" lon="5.82676">
        <ele>2436.53</ele>
        <time>2017-07-06T08:55:23Z</time>
      </trkpt>
      <trkpt lat="44.72632" lon="5.82655">
        <ele>2440.76</ele>
        <time>2017-07-06T08:56:26Z</time>
      </trkpt>
      <trkpt lat="44.72645" lon="5.82636">
        <ele>2459.85</ele>
        <time>2017-07-06T08:57:55Z</time>
      </trkpt>
      <trkpt lat="44.72662" lon="5.82626">
        <ele>2472.74</ele>
        <time>2017-07-06T08:59:43Z</time>
      </trkpt>
      <trkpt lat="44.72658" lon="5.82601">
        <ele>2478.6</ele>
        <time>2017-07-06T09:00:38Z</time>
      </trkpt>
      <trkpt lat="44.72671" lon="5.82585">
        <ele>2491.67</ele>
        <time>2017-07-06T09:01:49Z</time>
      </trkpt>
      <trkpt lat="44.7267" lon="5.82558">
        <ele>2508.5</ele>
        <time>2017-07-06T09:03:01Z</time>
      </trkpt>
      <trkpt lat="44.7266" lon="5.82537">
        <ele>2512.74</ele>
        <time>2017-07-06T09:03:34Z</time>
      </trkpt>
      <trkpt lat="44.72655" lon="5.82512">
        <ele>2517.35</ele>
        <time>2017-07-06T09:05:08Z</time>
      </trkpt>
      <trkpt lat="44.72664" lon="5.82488">
        <ele>2527.54</ele>
        <time>2017-07-06T09:06:33Z</time>
      </trkpt>
      <trkpt lat="44.72659" lon="5.82463">
        <ele>2533.7</ele>
        <time>2017-07-06T09:07:48Z</time>
      </trkpt>
      <trkpt lat="44.72657" lon="5.82437">
        <ele>2531.54</ele>
        <time>2017-07-06T09:08:10Z</time>
      </trkpt>
      <trkpt lat="44.72655" lon="5.82411">
        <ele>2530.98</ele>
        <time>2017-07-06T09:08:42Z</time>
      </trkpt>
      <trkpt lat="44.72651" lon="5.82384">
        <ele>2534.74</ele>
        <time>2017-07-06T09:09:01Z</time>
      </trkpt>
      <trkpt lat="44.72636" lon="5.82369">
        <ele>2532.81</ele>
        <time>2017-07-06T09:12:55Z</time>
      </trkpt>
      <trkpt lat="44.7262" lon="5.82358">
        <ele>2534.35</ele>
        <time>2017-07-06T09:22:51Z</time>
      </trkpt>
      <trkpt lat="44.72626" lon="5.82334">
        <ele>2517.74</ele>
        <time>2017-07-06T09:24:25Z</time>
      </trkpt>
      <trkpt lat="44.72638" lon="5.82314">
        <ele>2518.93</ele>
        <time>2017-07-06T09:26:06Z</time>
      </trkpt>
      <trkpt lat="44.72638" lon="5.82288">
        <ele>2520.48</ele>
        <time>2017-07-06T09:26:51Z</time>
      </trkpt>
      <trkpt lat="44.7265" lon="5.8227">
        <ele>2516.74</ele>
        <time>2017-07-06T09:28:47Z</time>
      </trkpt>
      <trkpt lat="44.72648" lon="5.82244">
        <ele>2517.55</ele>
        <time>2017-07-06T09:30:09Z</time>
      </trkpt>
      <trkpt lat="44.72645" lon="5.82219">
        <ele>2518.9</ele>
        <time>2017-07-06T09:31:37Z</time>
      </trkpt>
      <trkpt lat="44.72636" lon="5.82242">
        <ele>2527.56</ele>
        <time>2017-07-06T09:36:10Z</time>
      </trkpt>
      <trkpt lat="44.72639" lon="5.82216">
        <ele>2527.94</ele>
        <time>2017-07-06T09:37:23Z</time>
      </trkpt>
      <trkpt lat="44.72641" lon="5.82191">
        <ele>2525.33</ele>
        <time>2017-07-06T09:38:00Z</time>
      </trkpt>
      <trkpt lat="44.72638" lon="5.82165">
        <ele>2531.74</ele>
        <time>2017-07-06T09:38:47Z</time>
      </trkpt>
      <trkpt lat="44.72652" lon="5.82148">
        <ele>2540.57</ele>
        <time>2017-07-06T09:39:35Z</time>
      </trkpt>
      <trkpt lat="44.72636" lon="5.82135">
        <ele>2539.32</ele>
        <time>2017-07-06T09:40:34Z</time>
      </trkpt>
      <trkpt lat="44.72654" lon="5.82137">
        <ele>2544.9</ele>
        <time>2017-07-06T09:41:24Z</time>
      </trkpt>
      <trkpt lat="44.72643" lon="5.82117">
        <ele>2546.57</ele>
        <time>2017-07-06T09:42:28Z</time>
      </trkpt>
      <trkpt lat="44.7265" lon="5.82093">
        <ele>2553.54</ele>
        <time>2017-07-06T09:43:27Z</time>
      </trkpt>
      <trkpt lat="44.72655" lon="5.82069">
        <ele>2556.98</ele>
        <time>2017-07-06T09:44:21Z</time>
      </trkpt>
      <trkpt lat="44.72648" lon="5.82045">
        <ele>2565.78</ele>
        <time>2017-07-06T09:45:17Z</time>
      </trkpt>
      <trkpt lat="44.72635" lon="5.82027">
        <ele>2566.11</ele>
        <time>2017-07-06T09:46:09Z</time>
      </trkpt>
      <trkpt lat="44.72619" lon="5.82013">
        <ele>2563.18</ele>
        <time>2017-07-06T09:47:11Z</time>
      </trkpt>
      <trkpt lat="44.72602" lon="5.82005">
        <ele>2570.69</ele>
        <time>2017-07-06T09:48:21Z</time>
      </trkpt>
      <trkpt lat="44.72595" lon="5.81981">
        <ele>2569.53</ele>
        <time>2017-07-06T09:49:34Z</time>
      </trkpt>
      <trkpt lat="44.72583" lon="5.81961">
        <ele>2569.74</ele>
        <time>2017-07-06T09:50:01Z</time>
      </trkpt>
      <trkpt lat="44.72571" lon="5.81942">
        <ele>2589.53</ele>
        <time>2017-07-06T09:50:56Z</time>
      </trkpt>
      <trkpt lat="44.72559" lon="5.81924">
        <ele>2595.7</ele>
        <time>2017-07-06T09:52:16Z</time>
      </trkpt>
      <trkpt lat="44.72553" lon="5.819">
        <ele>2595.58</ele>
        <time>2017-07-06T09:53:33Z</time>
      </trkpt>
      <trkpt lat="44.72556" lon="5.81875">
        <ele>2607.45</ele>
        <time>2017-07-06T09:54:37Z</time>
      </trkpt>
      <trkpt lat="44.72541" lon="5.81857">
        <ele>2626.38</ele>
        <time>2017-07-06T10:02:48Z</time>
      </trkpt>
      <trkpt lat="44.72536" lon="5.81832">
        <ele>2639.66</ele>
        <time>2017-07-06T10:04:45Z</time>
      </trkpt>
      <trkpt lat="44.72529" lon="5.81808">
        <ele>2644.34</ele>
        <time>2017-07-06T10:06:14Z</time>
      </trkpt>
      <trkpt lat="44.72531" lon="5.81782">
        <ele>2637.78</ele>
        <time>2017-07-06T10:07:51Z</time>
      </trkpt>
      <trkpt lat="44.72513" lon="5.81785">
        <ele>2654.91</ele>
        <time>2017-07-06T10:11:36Z</time>
      </trkpt>
      <trkpt lat="44.72498" lon="5.8177">
        <ele>2666.7</ele>
        <time>2017-07-06T10:14:06Z</time>
      </trkpt>
      <trkpt lat="44.72488" lon="5.81748">
        <ele>2664.86</ele>
        <time>2017-07-06T10:14:56Z</time>
      </trkpt>
      <trkpt lat="44.72474" lon="5.8173">
        <ele>2665.94</ele>
        <time>2017-07-06T10:15:52Z</time>
      </trkpt>
      <trkpt lat="44.72465" lon="5.81708">
        <ele>2676.66</ele>
        <time>2017-07-06T10:17:56Z</time>
      </trkpt>
      <trkpt lat="44.72461" lon="5.81682">
        <ele>2689.72</ele>
        <time>2017-07-06T10:19:52Z</time>
      </trkpt>
      <trkpt lat="44.72457" lon="5.81657">
        <ele>2693.76</ele>
        <time>2017-07-06T10:21:09Z</time>
      </trkpt>
      <trkpt lat="44.72455" lon="5.81631">
        <ele>2714.43</ele>
        <time>2017-07-06T10:23:38Z</time>
      </trkpt>
      <trkpt lat="44.72472" lon="5.81623">
        <ele>2721.93</ele>
        <time>2017-07-06T10:24:26Z</time>
      </trkpt>
      <trkpt lat="44.7248" lon="5.81599">
        <ele>2728.14</ele>
        <time>2017-07-06T10:25:17Z</time>
      </trkpt>
      <trkpt lat="44.72481" lon="5.81573">
        <ele>2722.77</ele>
        <time>2017-07-06T10:27:10Z</time>
      </trkpt>
      <trkpt lat="44.72476" lon="5.81598">
        <ele>2726.54</ele>
        <time>2017-07-06T10:28:21Z</time>
      </trkpt>
      <trkpt lat="44.72457" lon="5.81606">
        <ele>2723.81</ele>
        <time>2017-07-06T10:28:51Z</time>
      </trkpt>
      <trkpt lat="44.72439" lon="5.816">
        <ele>2716.14</ele>
        <time>2017-07-06T10:29:30Z</time>
      </trkpt>
      <trkpt lat="44.72422" lon="5.81607">
        <ele>2703.74</ele>
        <time>2017-07-06T10:30:26Z</time>
      </trkpt>
      <trkpt lat="44.72403" lon="5.81605">
        <ele>2694.71</ele>
        <time>2017-07-06T10:31:13Z</time>
      </trkpt>
      <trkpt lat="44.72385" lon="5.816">
        <ele>2693.95</ele>
        <time>2017-07-06T10:32:51Z</time>
      </trkpt>
      <trkpt lat="44.72367" lon="5.81597">
        <ele>2692.74</ele>
        <time>2017-07-06T10:33:10Z</time>
      </trkpt>
      <trkpt lat="44.7235" lon="5.81608">
        <ele>2691.34</ele>
        <time>2017-07-06T10:38:09Z</time>
      </trkpt>
      <trkpt lat="44.72366" lon="5.81596">
        <ele>2686.55</ele>
        <time>2017-07-06T10:42:10Z</time>
      </trkpt>
      <trkpt lat="44.72365" lon="5.81571">
        <ele>2703.14</ele>
        <time>2017-07-06T10:43:36Z</time>
      </trkpt>
      <trkpt lat="44.72359" lon="5.81547">
        <ele>2699.73</ele>
        <time>2017-07-06T11:00:36Z</time>
      </trkpt>
      <trkpt lat="44.72339" lon="5.81548">
        <ele>2718.55</ele>
        <time>2017-07-06T11:03:41Z</time>
      </trkpt>
      <trkpt lat="44.72326" lon="5.81531">
        <ele>2724.9</ele>
        <time>2017-07-06T11:05:09Z</time>
      </trkpt>
      <trkpt lat="44.72311" lon="5.81514">
        <ele>2729.75</ele>
        <time>2017-07-06T11:05:37Z</time>
      </trkpt>
      <trkpt lat="44.72292" lon="5.81511">
        <ele>2734.66</ele>
        <time>2017-07-06T11:06:23Z</time>
      </trkpt>
      <trkpt lat="44.72274" lon="5.81508">
        <ele>2743.7</ele>
        <time>2017-07-06T11:06:54Z</time>
      </trkpt>
      <trkpt lat="44.72259" lon="5.81494">
        <ele>2747.81</ele>
        <time>2017-07-06T11:07:25Z</time>
      </trkpt>
      <trkpt lat="44.72241" lon="5.81489">
        <ele>2751.7</ele>
        <time>2017-07-06T11:08:03Z</time>
      </trkpt>
      <trkpt lat="44.72223" lon="5.81488">
        <ele>2751.71</ele>
        <time>2017-07-06T11:08:19Z</time>
      </trkpt>
      <trkpt lat="44.72205" lon="5.81481">
        <ele>2757.74</ele>
        <time>2017-07-06T11:08:47Z</time>
      </trkpt>
      <trkpt lat="44.72187" lon="5.81481">
        <ele>2760.74</ele>
        <time>2017-07-06T11:09:15Z</time>
      </trkpt>
      <trkpt lat="44.72168" lon="5.81479">
        <ele>2760.78</ele>
        <time>2017-07-06T11:11:20Z</time>
      </trkpt>
      <trkpt lat="44.72153" lon="5.81494">
        <ele>2755.75</ele>
        <time>2017-07-06T11:40:53Z</time>
      </trkpt>
      <trkpt lat="44.72168" lon="5.81509">
        <ele>2760.7</ele>
        <time>2017-07-06T11:41:45Z</time>
      </trkpt>
      <trkpt lat="44.72152" lon="5.81522">
        <ele>2747.75</ele>
        <time>2017-07-06T11:42:26Z</time>
      </trkpt>
      <trkpt lat="44.72135" lon="5.81535">
        <ele>2730.7</ele>
        <time>2017-07-06T11:43:09Z</time>
      </trkpt>
      <trkpt lat="44.72135" lon="5.81561">
        <ele>2719.89</ele>
        <time>2017-07-06T11:44:36Z</time>
      </trkpt>
      <trkpt lat="44.72124" lon="5.81581">
        <ele>2703.79</ele>
        <time>2017-07-06T11:45:41Z</time>
      </trkpt>
      <trkpt lat="44.72114" lon="5.81603">
        <ele>2680.13</ele>
        <time>2017-07-06T11:47:48Z</time>
      </trkpt>
      <trkpt lat="44.72102" lon="5.81624">
        <ele>2666.54</ele>
        <time>2017-07-06T11:49:43Z</time>
      </trkpt>
      <trkpt lat="44.72098" lon="5.81649">
        <ele>2653.58</ele>
        <time>2017-07-06T11:50:31Z</time>
      </trkpt>
      <trkpt lat="44.72081" lon="5.81658">
        <ele>2640.97</ele>
        <time>2017-07-06T11:51:35Z</time>
      </trkpt>
      <trkpt lat="44.72068" lon="5.81639">
        <ele>2635.9</ele>
        <time>2017-07-06T11:52:33Z</time>
      </trkpt>
      <trkpt lat="44.72054" lon="5.81621">
        <ele>2623.12</ele>
        <time>2017-07-06T11:52:56Z</time>
      </trkpt>
      <trkpt lat="44.72036" lon="5.8162">
        <ele>2606.54</ele>
        <time>2017-07-06T11:53:58Z</time>
      </trkpt>
      <trkpt lat="44.72023" lon="5.81602">
        <ele>2590.02</ele>
        <time>2017-07-06T11:56:54Z</time>
      </trkpt>
      <trkpt lat="44.72006" lon="5.8161">
        <ele>2580.72</ele>
        <time>2017-07-06T11:57:51Z</time>
      </trkpt>
      <trkpt lat="44.71996" lon="5.81588">
        <ele>2570.5</ele>
        <time>2017-07-06T11:59:49Z</time>
      </trkpt>
      <trkpt lat="44.7198" lon="5.81574">
        <ele>2555.62</ele>
        <time>2017-07-06T12:00:43Z</time>
      </trkpt>
      <trkpt lat="44.71963" lon="5.81562">
        <ele>2542</ele>
        <time>2017-07-06T12:00:57Z</time>
      </trkpt>
      <trkpt lat="44.71945" lon="5.81561">
        <ele>2533.24</ele>
        <time>2017-07-06T12:01:07Z</time>
      </trkpt>
      <trkpt lat="44.71925" lon="5.81561">
        <ele>2524.79</ele>
        <time>2017-07-06T12:01:17Z</time>
      </trkpt>
      <trkpt lat="44.71907" lon="5.81553">
        <ele>2512.83</ele>
        <time>2017-07-06T12:01:28Z</time>
      </trkpt>
      <trkpt lat="44.71889" lon="5.81563">
        <ele>2506.99</ele>
        <time>2017-07-06T12:03:06Z</time>
      </trkpt>
      <trkpt lat="44.71877" lon="5.81581">
        <ele>2498.99</ele>
        <time>2017-07-06T12:03:23Z</time>
      </trkpt>
      <trkpt lat="44.7187" lon="5.81605">
        <ele>2493.87</ele>
        <time>2017-07-06T12:03:43Z</time>
      </trkpt>
      <trkpt lat="44.71883" lon="5.81624">
        <ele>2477.78</ele>
        <time>2017-07-06T12:04:26Z</time>
      </trkpt>
      <trkpt lat="44.71896" lon="5.81643">
        <ele>2471.95</ele>
        <time>2017-07-06T12:04:43Z</time>
      </trkpt>
      <trkpt lat="44.7189" lon="5.81668">
        <ele>2460.74</ele>
        <time>2017-07-06T12:05:11Z</time>
      </trkpt>
      <trkpt lat="44.71875" lon="5.81682">
        <ele>2447.94</ele>
        <time>2017-07-06T12:05:34Z</time>
      </trkpt>
      <trkpt lat="44.71859" lon="5.81695">
        <ele>2442.74</ele>
        <time>2017-07-06T12:06:06Z</time>
      </trkpt>
      <trkpt lat="44.71845" lon="5.81711">
        <ele>2433.78</ele>
        <time>2017-07-06T12:06:27Z</time>
      </trkpt>
      <trkpt lat="44.7183" lon="5.81725">
        <ele>2416.92</ele>
        <time>2017-07-06T12:07:52Z</time>
      </trkpt>
      <trkpt lat="44.71815" lon="5.81742">
        <ele>2406.98</ele>
        <time>2017-07-06T12:08:29Z</time>
      </trkpt>
      <trkpt lat="44.71798" lon="5.8175">
        <ele>2386.94</ele>
        <time>2017-07-06T12:08:54Z</time>
      </trkpt>
      <trkpt lat="44.7178" lon="5.81755">
        <ele>2369.79</ele>
        <time>2017-07-06T12:09:12Z</time>
      </trkpt>
      <trkpt lat="44.71765" lon="5.8177">
        <ele>2377.93</ele>
        <time>2017-07-06T12:09:28Z</time>
      </trkpt>
      <trkpt lat="44.71748" lon="5.81779">
        <ele>2362.69</ele>
        <time>2017-07-06T12:10:02Z</time>
      </trkpt>
      <trkpt lat="44.7173" lon="5.81785">
        <ele>2345.14</ele>
        <time>2017-07-06T12:10:41Z</time>
      </trkpt>
      <trkpt lat="44.71713" lon="5.81793">
        <ele>2333.94</ele>
        <time>2017-07-06T12:11:10Z</time>
      </trkpt>
      <trkpt lat="44.71696" lon="5.81804">
        <ele>2318.77</ele>
        <time>2017-07-06T12:12:13Z</time>
      </trkpt>
      <trkpt lat="44.71681" lon="5.81819">
        <ele>2272.23</ele>
        <time>2017-07-06T12:12:49Z</time>
      </trkpt>
      <trkpt lat="44.71662" lon="5.81824">
        <ele>2301.33</ele>
        <time>2017-07-06T12:13:17Z</time>
      </trkpt>
      <trkpt lat="44.71654" lon="5.81848">
        <ele>2294.94</ele>
        <time>2017-07-06T12:15:09Z</time>
      </trkpt>
      <trkpt lat="44.71643" lon="5.81869">
        <ele>2299.92</ele>
        <time>2017-07-06T12:15:25Z</time>
      </trkpt>
      <trkpt lat="44.71652" lon="5.81893">
        <ele>2292.74</ele>
        <time>2017-07-06T12:15:45Z</time>
      </trkpt>
      <trkpt lat="44.71659" lon="5.81917">
        <ele>2289.63</ele>
        <time>2017-07-06T12:16:07Z</time>
      </trkpt>
      <trkpt lat="44.71656" lon="5.81943">
        <ele>2289.65</ele>
        <time>2017-07-06T12:16:49Z</time>
      </trkpt>
      <trkpt lat="44.71648" lon="5.81968">
        <ele>2292.79</ele>
        <time>2017-07-06T12:18:18Z</time>
      </trkpt>
      <trkpt lat="44.71647" lon="5.81994">
        <ele>2283.8</ele>
        <time>2017-07-06T12:18:34Z</time>
      </trkpt>
      <trkpt lat="44.71645" lon="5.82019">
        <ele>2277.92</ele>
        <time>2017-07-06T12:18:52Z</time>
      </trkpt>
      <trkpt lat="44.71644" lon="5.82045">
        <ele>2270.58</ele>
        <time>2017-07-06T12:19:16Z</time>
      </trkpt>
      <trkpt lat="44.71643" lon="5.8207">
        <ele>2268.94</ele>
        <time>2017-07-06T12:19:35Z</time>
      </trkpt>
      <trkpt lat="44.71636" lon="5.82094">
        <ele>2269.74</ele>
        <time>2017-07-06T12:19:52Z</time>
      </trkpt>
      <trkpt lat="44.71628" lon="5.82119">
        <ele>2269.11</ele>
        <time>2017-07-06T12:20:08Z</time>
      </trkpt>
      <trkpt lat="44.71623" lon="5.82144">
        <ele>2263.78</ele>
        <time>2017-07-06T12:20:22Z</time>
      </trkpt>
      <trkpt lat="44.71623" lon="5.8217">
        <ele>2258.79</ele>
        <time>2017-07-06T12:20:54Z</time>
      </trkpt>
      <trkpt lat="44.71619" lon="5.82197">
        <ele>2256.95</ele>
        <time>2017-07-06T12:21:13Z</time>
      </trkpt>
      <trkpt lat="44.71622" lon="5.82222">
        <ele>2250.78</ele>
        <time>2017-07-06T12:21:34Z</time>
      </trkpt>
      <trkpt lat="44.71619" lon="5.82248">
        <ele>2249.77</ele>
        <time>2017-07-06T12:21:57Z</time>
      </trkpt>
      <trkpt lat="44.71616" lon="5.82274">
        <ele>2242.95</ele>
        <time>2017-07-06T12:22:16Z</time>
      </trkpt>
      <trkpt lat="44.71611" lon="5.82299">
        <ele>2241.78</ele>
        <time>2017-07-06T12:22:32Z</time>
      </trkpt>
      <trkpt lat="44.71618" lon="5.82323">
        <ele>2234.98</ele>
        <time>2017-07-06T12:23:31Z</time>
      </trkpt>
      <trkpt lat="44.71622" lon="5.82349">
        <ele>2232.54</ele>
        <time>2017-07-06T12:23:49Z</time>
      </trkpt>
      <trkpt lat="44.71626" lon="5.82373">
        <ele>2231.71</ele>
        <time>2017-07-06T12:24:12Z</time>
      </trkpt>
      <trkpt lat="44.71629" lon="5.82399">
        <ele>2226.72</ele>
        <time>2017-07-06T12:24:34Z</time>
      </trkpt>
      <trkpt lat="44.71644" lon="5.82416">
        <ele>2225.5</ele>
        <time>2017-07-06T12:25:17Z</time>
      </trkpt>
      <trkpt lat="44.7165" lon="5.8244">
        <ele>2214.91</ele>
        <time>2017-07-06T12:26:20Z</time>
      </trkpt>
      <trkpt lat="44.71664" lon="5.82458">
        <ele>2221.75</ele>
        <time>2017-07-06T12:26:35Z</time>
      </trkpt>
      <trkpt lat="44.71679" lon="5.82475">
        <ele>2217.9</ele>
        <time>2017-07-06T12:26:52Z</time>
      </trkpt>
      <trkpt lat="44.7169" lon="5.82495">
        <ele>2218.9</ele>
        <time>2017-07-06T12:27:10Z</time>
      </trkpt>
      <trkpt lat="44.71697" lon="5.8252">
        <ele>2223.89</ele>
        <time>2017-07-06T12:27:31Z</time>
      </trkpt>
      <trkpt lat="44.71697" lon="5.82546">
        <ele>2225.58</ele>
        <time>2017-07-06T12:27:47Z</time>
      </trkpt>
      <trkpt lat="44.71695" lon="5.82572">
        <ele>2218.54</ele>
        <time>2017-07-06T12:28:15Z</time>
      </trkpt>
      <trkpt lat="44.71711" lon="5.82586">
        <ele>2209.94</ele>
        <time>2017-07-06T12:29:22Z</time>
      </trkpt>
      <trkpt lat="44.71723" lon="5.82605">
        <ele>2206.75</ele>
        <time>2017-07-06T12:29:44Z</time>
      </trkpt>
      <trkpt lat="44.71724" lon="5.82631">
        <ele>2217.34</ele>
        <time>2017-07-06T12:30:01Z</time>
      </trkpt>
      <trkpt lat="44.71723" lon="5.82656">
        <ele>2217.81</ele>
        <time>2017-07-06T12:30:18Z</time>
      </trkpt>
      <trkpt lat="44.71717" lon="5.82682">
        <ele>2214.72</ele>
        <time>2017-07-06T12:30:38Z</time>
      </trkpt>
      <trkpt lat="44.71718" lon="5.82708">
        <ele>2209.94</ele>
        <time>2017-07-06T12:31:01Z</time>
      </trkpt>
      <trkpt lat="44.7172" lon="5.82734">
        <ele>2208.94</ele>
        <time>2017-07-06T12:31:17Z</time>
      </trkpt>
      <trkpt lat="44.71721" lon="5.82762">
        <ele>2212.78</ele>
        <time>2017-07-06T12:31:40Z</time>
      </trkpt>
      <trkpt lat="44.71716" lon="5.82786">
        <ele>2210.78</ele>
        <time>2017-07-06T12:32:15Z</time>
      </trkpt>
      <trkpt lat="44.7172" lon="5.82811">
        <ele>2201.75</ele>
        <time>2017-07-06T12:32:36Z</time>
      </trkpt>
      <trkpt lat="44.71716" lon="5.82836">
        <ele>2206.91</ele>
        <time>2017-07-06T12:32:55Z</time>
      </trkpt>
      <trkpt lat="44.71709" lon="5.82859">
        <ele>2196.78</ele>
        <time>2017-07-06T12:33:13Z</time>
      </trkpt>
      <trkpt lat="44.71697" lon="5.82881">
        <ele>2194.94</ele>
        <time>2017-07-06T12:33:35Z</time>
      </trkpt>
      <trkpt lat="44.71689" lon="5.82905">
        <ele>2186.66</ele>
        <time>2017-07-06T12:34:06Z</time>
      </trkpt>
      <trkpt lat="44.71686" lon="5.82931">
        <ele>2172.75</ele>
        <time>2017-07-06T12:34:31Z</time>
      </trkpt>
      <trkpt lat="44.71676" lon="5.82953">
        <ele>2165.76</ele>
        <time>2017-07-06T12:34:56Z</time>
      </trkpt>
      <trkpt lat="44.71677" lon="5.8298">
        <ele>2163.94</ele>
        <time>2017-07-06T12:35:18Z</time>
      </trkpt>
      <trkpt lat="44.71677" lon="5.83006">
        <ele>2166.51</ele>
        <time>2017-07-06T12:35:40Z</time>
      </trkpt>
      <trkpt lat="44.71674" lon="5.83031">
        <ele>2167.67</ele>
        <time>2017-07-06T12:35:57Z</time>
      </trkpt>
      <trkpt lat="44.7167" lon="5.83056">
        <ele>2159.93</ele>
        <time>2017-07-06T12:36:24Z</time>
      </trkpt>
      <trkpt lat="44.71676" lon="5.8308">
        <ele>2154.74</ele>
        <time>2017-07-06T12:36:46Z</time>
      </trkpt>
      <trkpt lat="44.71675" lon="5.83105">
        <ele>2156.73</ele>
        <time>2017-07-06T12:37:11Z</time>
      </trkpt>
      <trkpt lat="44.71676" lon="5.83132">
        <ele>2153.78</ele>
        <time>2017-07-06T12:37:37Z</time>
      </trkpt>
      <trkpt lat="44.71678" lon="5.83157">
        <ele>2148.94</ele>
        <time>2017-07-06T12:38:01Z</time>
      </trkpt>
      <trkpt lat="44.71687" lon="5.8318">
        <ele>2141.14</ele>
        <time>2017-07-06T12:38:23Z</time>
      </trkpt>
      <trkpt lat="44.71695" lon="5.83204">
        <ele>2137.34</ele>
        <time>2017-07-06T12:38:44Z</time>
      </trkpt>
      <trkpt lat="44.71695" lon="5.8323">
        <ele>2142.94</ele>
        <time>2017-07-06T12:39:06Z</time>
      </trkpt>
      <trkpt lat="44.71702" lon="5.83253">
        <ele>2141.93</ele>
        <time>2017-07-06T12:39:27Z</time>
      </trkpt>
      <trkpt lat="44.71691" lon="5.83274">
        <ele>2130.14</ele>
        <time>2017-07-06T12:40:07Z</time>
      </trkpt>
      <trkpt lat="44.71682" lon="5.83297">
        <ele>2122.75</ele>
        <time>2017-07-06T12:40:37Z</time>
      </trkpt>
      <trkpt lat="44.71666" lon="5.83311">
        <ele>2128.74</ele>
        <time>2017-07-06T12:40:54Z</time>
      </trkpt>
      <trkpt lat="44.71683" lon="5.83322">
        <ele>2119.98</ele>
        <time>2017-07-06T12:42:15Z</time>
      </trkpt>
      <trkpt lat="44.71687" lon="5.83347">
        <ele>2131.74</ele>
        <time>2017-07-06T12:44:03Z</time>
      </trkpt>
      <trkpt lat="44.71703" lon="5.8336">
        <ele>2128.98</ele>
        <time>2017-07-06T12:44:22Z</time>
      </trkpt>
      <trkpt lat="44.71721" lon="5.83367">
        <ele>2120.11</ele>
        <time>2017-07-06T12:44:39Z</time>
      </trkpt>
      <trkpt lat="44.7173" lon="5.83391">
        <ele>2115.74</ele>
        <time>2017-07-06T12:44:58Z</time>
      </trkpt>
      <trkpt lat="44.71741" lon="5.83411">
        <ele>2109.74</ele>
        <time>2017-07-06T12:45:12Z</time>
      </trkpt>
      <trkpt lat="44.7175" lon="5.83434">
        <ele>2111.94</ele>
        <time>2017-07-06T12:45:31Z</time>
      </trkpt>
      <trkpt lat="44.71755" lon="5.83458">
        <ele>2111.7</ele>
        <time>2017-07-06T12:45:50Z</time>
      </trkpt>
      <trkpt lat="44.7176" lon="5.83484">
        <ele>2111.74</ele>
        <time>2017-07-06T12:46:09Z</time>
      </trkpt>
      <trkpt lat="44.71764" lon="5.8351">
        <ele>2109.78</ele>
        <time>2017-07-06T12:46:26Z</time>
      </trkpt>
      <trkpt lat="44.7176" lon="5.83536">
        <ele>2108.9</ele>
        <time>2017-07-06T12:46:45Z</time>
      </trkpt>
      <trkpt lat="44.71755" lon="5.83562">
        <ele>2108.9</ele>
        <time>2017-07-06T12:47:02Z</time>
      </trkpt>
      <trkpt lat="44.71751" lon="5.83588">
        <ele>2107.75</ele>
        <time>2017-07-06T12:47:19Z</time>
      </trkpt>
      <trkpt lat="44.71749" lon="5.83613">
        <ele>2106.53</ele>
        <time>2017-07-06T12:47:39Z</time>
      </trkpt>
      <trkpt lat="44.71735" lon="5.83632">
        <ele>2083.63</ele>
        <time>2017-07-06T12:48:29Z</time>
      </trkpt>
      <trkpt lat="44.71719" lon="5.83645">
        <ele>2106.53</ele>
        <time>2017-07-06T12:48:43Z</time>
      </trkpt>
      <trkpt lat="44.71705" lon="5.83661">
        <ele>2103.73</ele>
        <time>2017-07-06T12:49:15Z</time>
      </trkpt>
      <trkpt lat="44.71693" lon="5.83681">
        <ele>2094.74</ele>
        <time>2017-07-06T12:49:40Z</time>
      </trkpt>
      <trkpt lat="44.71683" lon="5.83703">
        <ele>2090.69</ele>
        <time>2017-07-06T12:50:01Z</time>
      </trkpt>
      <trkpt lat="44.71671" lon="5.83721">
        <ele>2092.49</ele>
        <time>2017-07-06T12:50:23Z</time>
      </trkpt>
      <trkpt lat="44.71662" lon="5.83746">
        <ele>2076.98</ele>
        <time>2017-07-06T12:51:27Z</time>
      </trkpt>
      <trkpt lat="44.71645" lon="5.83755">
        <ele>2072.98</ele>
        <time>2017-07-06T12:51:48Z</time>
      </trkpt>
      <trkpt lat="44.71629" lon="5.83769">
        <ele>2062.38</ele>
        <time>2017-07-06T12:52:26Z</time>
      </trkpt>
      <trkpt lat="44.71612" lon="5.83781">
        <ele>2051.96</ele>
        <time>2017-07-06T12:54:26Z</time>
      </trkpt>
      <trkpt lat="44.71605" lon="5.83806">
        <ele>2040.73</ele>
        <time>2017-07-06T12:54:59Z</time>
      </trkpt>
      <trkpt lat="44.71603" lon="5.83831">
        <ele>2028.94</ele>
        <time>2017-07-06T12:55:29Z</time>
      </trkpt>
      <trkpt lat="44.716" lon="5.83857">
        <ele>2018.93</ele>
        <time>2017-07-06T12:56:21Z</time>
      </trkpt>
      <trkpt lat="44.71603" lon="5.83884">
        <ele>2016.51</ele>
        <time>2017-07-06T12:56:40Z</time>
      </trkpt>
      <trkpt lat="44.71621" lon="5.83889">
        <ele>2012.91</ele>
        <time>2017-07-06T12:56:58Z</time>
      </trkpt>
      <trkpt lat="44.71636" lon="5.83872">
        <ele>1999.74</ele>
        <time>2017-07-06T12:57:53Z</time>
      </trkpt>
      <trkpt lat="44.71654" lon="5.8387">
        <ele>1996.74</ele>
        <time>2017-07-06T12:58:10Z</time>
      </trkpt>
      <trkpt lat="44.71669" lon="5.83887">
        <ele>1987.5</ele>
        <time>2017-07-06T12:58:49Z</time>
      </trkpt>
      <trkpt lat="44.71668" lon="5.83912">
        <ele>1988.17</ele>
        <time>2017-07-06T12:59:08Z</time>
      </trkpt>
      <trkpt lat="44.71671" lon="5.83938">
        <ele>1970.16</ele>
        <time>2017-07-06T12:59:34Z</time>
      </trkpt>
      <trkpt lat="44.71659" lon="5.83959">
        <ele>1959.6</ele>
        <time>2017-07-06T13:00:02Z</time>
      </trkpt>
      <trkpt lat="44.71654" lon="5.83984">
        <ele>1955.86</ele>
        <time>2017-07-06T13:00:21Z</time>
      </trkpt>
      <trkpt lat="44.71664" lon="5.84005">
        <ele>1947.7</ele>
        <time>2017-07-06T13:00:37Z</time>
      </trkpt>
      <trkpt lat="44.71674" lon="5.84026">
        <ele>1940.95</ele>
        <time>2017-07-06T13:01:01Z</time>
      </trkpt>
      <trkpt lat="44.71681" lon="5.84051">
        <ele>1935.55</ele>
        <time>2017-07-06T13:01:32Z</time>
      </trkpt>
      <trkpt lat="44.71675" lon="5.84075">
        <ele>1940.15</ele>
        <time>2017-07-06T13:01:49Z</time>
      </trkpt>
      <trkpt lat="44.7168" lon="5.841">
        <ele>1917.74</ele>
        <time>2017-07-06T13:03:18Z</time>
      </trkpt>
      <trkpt lat="44.71677" lon="5.84126">
        <ele>1913.48</ele>
        <time>2017-07-06T13:03:41Z</time>
      </trkpt>
      <trkpt lat="44.71687" lon="5.84149">
        <ele>1903.03</ele>
        <time>2017-07-06T13:04:03Z</time>
      </trkpt>
      <trkpt lat="44.71692" lon="5.84173">
        <ele>1890.04</ele>
        <time>2017-07-06T13:04:27Z</time>
      </trkpt>
      <trkpt lat="44.7169" lon="5.842">
        <ele>1889.61</ele>
        <time>2017-07-06T13:04:48Z</time>
      </trkpt>
      <trkpt lat="44.7169" lon="5.84226">
        <ele>1877.75</ele>
        <time>2017-07-06T13:05:12Z</time>
      </trkpt>
      <trkpt lat="44.71692" lon="5.84252">
        <ele>1878.99</ele>
        <time>2017-07-06T13:05:30Z</time>
      </trkpt>
      <trkpt lat="44.71685" lon="5.84275">
        <ele>1874.95</ele>
        <time>2017-07-06T13:05:54Z</time>
      </trkpt>
      <trkpt lat="44.71674" lon="5.84299">
        <ele>1858.75</ele>
        <time>2017-07-06T13:08:48Z</time>
      </trkpt>
      <trkpt lat="44.71677" lon="5.84325">
        <ele>1857.7</ele>
        <time>2017-07-06T13:09:03Z</time>
      </trkpt>
      <trkpt lat="44.71679" lon="5.84351">
        <ele>1859.7</ele>
        <time>2017-07-06T13:09:17Z</time>
      </trkpt>
      <trkpt lat="44.7167" lon="5.84376">
        <ele>1854.86</ele>
        <time>2017-07-06T13:09:36Z</time>
      </trkpt>
      <trkpt lat="44.71668" lon="5.84401">
        <ele>1842.98</ele>
        <time>2017-07-06T13:09:59Z</time>
      </trkpt>
      <trkpt lat="44.71667" lon="5.84428">
        <ele>1832.94</ele>
        <time>2017-07-06T13:10:21Z</time>
      </trkpt>
      <trkpt lat="44.71668" lon="5.84454">
        <ele>1838.07</ele>
        <time>2017-07-06T13:10:40Z</time>
      </trkpt>
      <trkpt lat="44.71669" lon="5.84481">
        <ele>1822.16</ele>
        <time>2017-07-06T13:10:58Z</time>
      </trkpt>
      <trkpt lat="44.71676" lon="5.84506">
        <ele>1814.96</ele>
        <time>2017-07-06T13:11:18Z</time>
      </trkpt>
      <trkpt lat="44.71669" lon="5.8453">
        <ele>1806.1</ele>
        <time>2017-07-06T13:11:41Z</time>
      </trkpt>
      <trkpt lat="44.71664" lon="5.84555">
        <ele>1802.9</ele>
        <time>2017-07-06T13:12:04Z</time>
      </trkpt>
      <trkpt lat="44.71659" lon="5.84581">
        <ele>1796.62</ele>
        <time>2017-07-06T13:12:28Z</time>
      </trkpt>
      <trkpt lat="44.71658" lon="5.8461">
        <ele>1785.86</ele>
        <time>2017-07-06T13:12:40Z</time>
      </trkpt>
      <trkpt lat="44.71655" lon="5.84635">
        <ele>1790.73</ele>
        <time>2017-07-06T13:12:57Z</time>
      </trkpt>
      <trkpt lat="44.71657" lon="5.84661">
        <ele>1785.94</ele>
        <time>2017-07-06T13:13:17Z</time>
      </trkpt>
      <trkpt lat="44.71656" lon="5.84687">
        <ele>1784.59</ele>
        <time>2017-07-06T13:13:32Z</time>
      </trkpt>
      <trkpt lat="44.71663" lon="5.84712">
        <ele>1785.67</ele>
        <time>2017-07-06T13:13:51Z</time>
      </trkpt>
      <trkpt lat="44.71671" lon="5.84735">
        <ele>1782.74</ele>
        <time>2017-07-06T13:14:07Z</time>
      </trkpt>
      <trkpt lat="44.71673" lon="5.84762">
        <ele>1779.98</ele>
        <time>2017-07-06T13:14:35Z</time>
      </trkpt>
      <trkpt lat="44.7168" lon="5.84786">
        <ele>1777.55</ele>
        <time>2017-07-06T13:14:57Z</time>
      </trkpt>
      <trkpt lat="44.71688" lon="5.8481">
        <ele>1777.74</ele>
        <time>2017-07-06T13:15:13Z</time>
      </trkpt>
      <trkpt lat="44.71695" lon="5.84834">
        <ele>1776.51</ele>
        <time>2017-07-06T13:15:27Z</time>
      </trkpt>
      <trkpt lat="44.71699" lon="5.84858">
        <ele>1768.75</ele>
        <time>2017-07-06T13:15:45Z</time>
      </trkpt>
      <trkpt lat="44.71699" lon="5.84884">
        <ele>1763.75</ele>
        <time>2017-07-06T13:16:04Z</time>
      </trkpt>
      <trkpt lat="44.71703" lon="5.84908">
        <ele>1761.94</ele>
        <time>2017-07-06T13:16:19Z</time>
      </trkpt>
      <trkpt lat="44.71704" lon="5.84934">
        <ele>1759.97</ele>
        <time>2017-07-06T13:16:36Z</time>
      </trkpt>
      <trkpt lat="44.71705" lon="5.8496">
        <ele>1753.53</ele>
        <time>2017-07-06T13:16:57Z</time>
      </trkpt>
      <trkpt lat="44.71691" lon="5.8498">
        <ele>1756.74</ele>
        <time>2017-07-06T13:17:14Z</time>
      </trkpt>
      <trkpt lat="44.71675" lon="5.84994">
        <ele>1752.74</ele>
        <time>2017-07-06T13:17:29Z</time>
      </trkpt>
      <trkpt lat="44.71668" lon="5.85017">
        <ele>1735.58</ele>
        <time>2017-07-06T13:17:56Z</time>
      </trkpt>
      <trkpt lat="44.71672" lon="5.85042">
        <ele>1728.55</ele>
        <time>2017-07-06T13:18:12Z</time>
      </trkpt>
      <trkpt lat="44.71673" lon="5.85068">
        <ele>1726.93</ele>
        <time>2017-07-06T13:18:39Z</time>
      </trkpt>
      <trkpt lat="44.7168" lon="5.85091">
        <ele>1715.77</ele>
        <time>2017-07-06T13:19:06Z</time>
      </trkpt>
      <trkpt lat="44.71686" lon="5.85116">
        <ele>1712.75</ele>
        <time>2017-07-06T13:19:28Z</time>
      </trkpt>
      <trkpt lat="44.71683" lon="5.85141">
        <ele>1706.71</ele>
        <time>2017-07-06T13:20:06Z</time>
      </trkpt>
      <trkpt lat="44.71681" lon="5.85167">
        <ele>1702.18</ele>
        <time>2017-07-06T13:20:33Z</time>
      </trkpt>
      <trkpt lat="44.71696" lon="5.85184">
        <ele>1686.94</ele>
        <time>2017-07-06T13:21:04Z</time>
      </trkpt>
      <trkpt lat="44.71708" lon="5.85204">
        <ele>1682.74</ele>
        <time>2017-07-06T13:21:33Z</time>
      </trkpt>
      <trkpt lat="44.71713" lon="5.8523">
        <ele>1680.74</ele>
        <time>2017-07-06T13:21:55Z</time>
      </trkpt>
      <trkpt lat="44.71725" lon="5.85248">
        <ele>1676.94</ele>
        <time>2017-07-06T13:22:15Z</time>
      </trkpt>
      <trkpt lat="44.71732" lon="5.85273">
        <ele>1672.79</ele>
        <time>2017-07-06T13:22:40Z</time>
      </trkpt>
      <trkpt lat="44.71735" lon="5.85299">
        <ele>1671.74</ele>
        <time>2017-07-06T13:22:57Z</time>
      </trkpt>
      <trkpt lat="44.71735" lon="5.85328">
        <ele>1667</ele>
        <time>2017-07-06T13:23:14Z</time>
      </trkpt>
      <trkpt lat="44.71736" lon="5.85353">
        <ele>1667.9</ele>
        <time>2017-07-06T13:23:28Z</time>
      </trkpt>
      <trkpt lat="44.71733" lon="5.85379">
        <ele>1664.75</ele>
        <time>2017-07-06T13:23:50Z</time>
      </trkpt>
      <trkpt lat="44.71734" lon="5.85404">
        <ele>1661.72</ele>
        <time>2017-07-06T13:24:07Z</time>
      </trkpt>
      <trkpt lat="44.71732" lon="5.85431">
        <ele>1661.7</ele>
        <time>2017-07-06T13:24:24Z</time>
      </trkpt>
      <trkpt lat="44.71734" lon="5.85456">
        <ele>1654.94</ele>
        <time>2017-07-06T13:24:54Z</time>
      </trkpt>
      <trkpt lat="44.71742" lon="5.85479">
        <ele>1650.7</ele>
        <time>2017-07-06T13:25:10Z</time>
      </trkpt>
      <trkpt lat="44.71747" lon="5.85505">
        <ele>1642.74</ele>
        <time>2017-07-06T13:25:39Z</time>
      </trkpt>
      <trkpt lat="44.71746" lon="5.85532">
        <ele>1641.75</ele>
        <time>2017-07-06T13:26:01Z</time>
      </trkpt>
      <trkpt lat="44.71738" lon="5.85555">
        <ele>1636.73</ele>
        <time>2017-07-06T13:26:27Z</time>
      </trkpt>
      <trkpt lat="44.71735" lon="5.85581">
        <ele>1625.78</ele>
        <time>2017-07-06T13:26:53Z</time>
      </trkpt>
      <trkpt lat="44.71722" lon="5.85598">
        <ele>1623.74</ele>
        <time>2017-07-06T13:27:20Z</time>
      </trkpt>
      <trkpt lat="44.71718" lon="5.85624">
        <ele>1611.94</ele>
        <time>2017-07-06T13:27:46Z</time>
      </trkpt>
      <trkpt lat="44.71709" lon="5.85646">
        <ele>1603.79</ele>
        <time>2017-07-06T13:28:11Z</time>
      </trkpt>
      <trkpt lat="44.71719" lon="5.85667">
        <ele>1599.89</ele>
        <time>2017-07-06T13:28:31Z</time>
      </trkpt>
      <trkpt lat="44.7173" lon="5.8569">
        <ele>1593.74</ele>
        <time>2017-07-06T13:28:51Z</time>
      </trkpt>
      <trkpt lat="44.71729" lon="5.85717">
        <ele>1585.98</ele>
        <time>2017-07-06T13:29:07Z</time>
      </trkpt>
      <trkpt lat="44.7172" lon="5.85739">
        <ele>1584.58</ele>
        <time>2017-07-06T13:29:40Z</time>
      </trkpt>
      <trkpt lat="44.71736" lon="5.85754">
        <ele>1578.91</ele>
        <time>2017-07-06T13:29:59Z</time>
      </trkpt>
      <trkpt lat="44.71742" lon="5.85779">
        <ele>1563.75</ele>
        <time>2017-07-06T13:30:23Z</time>
      </trkpt>
      <trkpt lat="44.71743" lon="5.85804">
        <ele>1557.74</ele>
        <time>2017-07-06T13:30:45Z</time>
      </trkpt>
      <trkpt lat="44.71742" lon="5.85831">
        <ele>1556.51</ele>
        <time>2017-07-06T13:31:04Z</time>
      </trkpt>
      <trkpt lat="44.71742" lon="5.85857">
        <ele>1548.59</ele>
        <time>2017-07-06T13:31:21Z</time>
      </trkpt>
      <trkpt lat="44.71738" lon="5.85883">
        <ele>1545.75</ele>
        <time>2017-07-06T13:31:42Z</time>
      </trkpt>
      <trkpt lat="44.71733" lon="5.85907">
        <ele>1540.55</ele>
        <time>2017-07-06T13:32:00Z</time>
      </trkpt>
      <trkpt lat="44.71727" lon="5.85933">
        <ele>1531.78</ele>
        <time>2017-07-06T13:32:23Z</time>
      </trkpt>
      <trkpt lat="44.71719" lon="5.85956">
        <ele>1529.49</ele>
        <time>2017-07-06T13:32:40Z</time>
      </trkpt>
      <trkpt lat="44.71713" lon="5.85982">
        <ele>1521.75</ele>
        <time>2017-07-06T13:33:11Z</time>
      </trkpt>
      <trkpt lat="44.71707" lon="5.86007">
        <ele>1524.58</ele>
        <time>2017-07-06T13:33:24Z</time>
      </trkpt>
      <trkpt lat="44.71697" lon="5.86029">
        <ele>1523.93</ele>
        <time>2017-07-06T13:33:37Z</time>
      </trkpt>
      <trkpt lat="44.71683" lon="5.86046">
        <ele>1521.73</ele>
        <time>2017-07-06T13:34:04Z</time>
      </trkpt>
      <trkpt lat="44.71674" lon="5.8607">
        <ele>1517.58</ele>
        <time>2017-07-06T13:34:26Z</time>
      </trkpt>
      <trkpt lat="44.71661" lon="5.86088">
        <ele>1516.71</ele>
        <time>2017-07-06T13:34:43Z</time>
      </trkpt>
      <trkpt lat="44.71653" lon="5.86112">
        <ele>1513.73</ele>
        <time>2017-07-06T13:35:02Z</time>
      </trkpt>
      <trkpt lat="44.71657" lon="5.86137">
        <ele>1510.52</ele>
        <time>2017-07-06T13:35:23Z</time>
      </trkpt>
      <trkpt lat="44.71662" lon="5.86162">
        <ele>1511.9</ele>
        <time>2017-07-06T13:35:43Z</time>
      </trkpt>
      <trkpt lat="44.71665" lon="5.86188">
        <ele>1510.54</ele>
        <time>2017-07-06T13:36:00Z</time>
      </trkpt>
      <trkpt lat="44.71664" lon="5.86215">
        <ele>1507.5</ele>
        <time>2017-07-06T13:36:17Z</time>
      </trkpt>
      <trkpt lat="44.71664" lon="5.86241">
        <ele>1507.55</ele>
        <time>2017-07-06T13:36:45Z</time>
      </trkpt>
      <trkpt lat="44.71663" lon="5.86267">
        <ele>1500.76</ele>
        <time>2017-07-06T13:37:01Z</time>
      </trkpt>
      <trkpt lat="44.71664" lon="5.86293">
        <ele>1495.9</ele>
        <time>2017-07-06T13:37:19Z</time>
      </trkpt>
      <trkpt lat="44.71667" lon="5.8632">
        <ele>1493.81</ele>
        <time>2017-07-06T13:37:33Z</time>
      </trkpt>
      <trkpt lat="44.71664" lon="5.86346">
        <ele>1495.46</ele>
        <time>2017-07-06T13:37:48Z</time>
      </trkpt>
      <trkpt lat="44.71654" lon="5.86368">
        <ele>1499.1</ele>
        <time>2017-07-06T13:38:00Z</time>
      </trkpt>
      <trkpt lat="44.71649" lon="5.86394">
        <ele>1491.79</ele>
        <time>2017-07-06T13:38:19Z</time>
      </trkpt>
      <trkpt lat="44.71641" lon="5.86419">
        <ele>1492.75</ele>
        <time>2017-07-06T13:38:32Z</time>
      </trkpt>
      <trkpt lat="44.71635" lon="5.86444">
        <ele>1489.71</ele>
        <time>2017-07-06T13:38:50Z</time>
      </trkpt>
      <trkpt lat="44.71623" lon="5.86462">
        <ele>1486.78</ele>
        <time>2017-07-06T13:39:06Z</time>
      </trkpt>
      <trkpt lat="44.71615" lon="5.86486">
        <ele>1485.94</ele>
        <time>2017-07-06T13:39:24Z</time>
      </trkpt>
      <trkpt lat="44.71612" lon="5.86512">
        <ele>1475.94</ele>
        <time>2017-07-06T13:39:43Z</time>
      </trkpt>
      <trkpt lat="44.7161" lon="5.86538">
        <ele>1469.59</ele>
        <time>2017-07-06T13:40:03Z</time>
      </trkpt>
      <trkpt lat="44.71611" lon="5.86565">
        <ele>1465.38</ele>
        <time>2017-07-06T13:40:24Z</time>
      </trkpt>
      <trkpt lat="44.71613" lon="5.8659">
        <ele>1465.34</ele>
        <time>2017-07-06T13:40:42Z</time>
      </trkpt>
      <trkpt lat="44.71613" lon="5.86617">
        <ele>1459.93</ele>
        <time>2017-07-06T13:40:59Z</time>
      </trkpt>
      <trkpt lat="44.71607" lon="5.86641">
        <ele>1459.49</ele>
        <time>2017-07-06T13:41:22Z</time>
      </trkpt>
      <trkpt lat="44.716" lon="5.86665">
        <ele>1452.78</ele>
        <time>2017-07-06T13:41:42Z</time>
      </trkpt>
      <trkpt lat="44.71592" lon="5.86688">
        <ele>1449.74</ele>
        <time>2017-07-06T13:41:59Z</time>
      </trkpt>
      <trkpt lat="44.71588" lon="5.86714">
        <ele>1443.79</ele>
        <time>2017-07-06T13:42:22Z</time>
      </trkpt>
      <trkpt lat="44.71579" lon="5.86735">
        <ele>1443.77</ele>
        <time>2017-07-06T13:42:40Z</time>
      </trkpt>
      <trkpt lat="44.71576" lon="5.86761">
        <ele>1437.94</ele>
        <time>2017-07-06T13:42:58Z</time>
      </trkpt>
      <trkpt lat="44.7157" lon="5.86785">
        <ele>1441.45</ele>
        <time>2017-07-06T13:43:19Z</time>
      </trkpt>
      <trkpt lat="44.71571" lon="5.86811">
        <ele>1423.75</ele>
        <time>2017-07-06T13:43:43Z</time>
      </trkpt>
      <trkpt lat="44.71561" lon="5.86833">
        <ele>1420.49</ele>
        <time>2017-07-06T13:44:02Z</time>
      </trkpt>
      <trkpt lat="44.71553" lon="5.86858">
        <ele>1424.46</ele>
        <time>2017-07-06T13:44:16Z</time>
      </trkpt>
      <trkpt lat="44.71545" lon="5.86881">
        <ele>1421.74</ele>
        <time>2017-07-06T13:44:52Z</time>
      </trkpt>
      <trkpt lat="44.71539" lon="5.86905">
        <ele>1419.74</ele>
        <time>2017-07-06T13:45:09Z</time>
      </trkpt>
      <trkpt lat="44.71531" lon="5.86929">
        <ele>1422.78</ele>
        <time>2017-07-06T13:45:25Z</time>
      </trkpt>
      <trkpt lat="44.71529" lon="5.86955">
        <ele>1416.78</ele>
        <time>2017-07-06T13:45:44Z</time>
      </trkpt>
      <trkpt lat="44.71527" lon="5.86981">
        <ele>1414.75</ele>
        <time>2017-07-06T13:46:02Z</time>
      </trkpt>
      <trkpt lat="44.71525" lon="5.87008">
        <ele>1411.78</ele>
        <time>2017-07-06T13:46:21Z</time>
      </trkpt>
      <trkpt lat="44.71517" lon="5.87031">
        <ele>1408.98</ele>
        <time>2017-07-06T13:46:40Z</time>
      </trkpt>
      <trkpt lat="44.71511" lon="5.87056">
        <ele>1404.74</ele>
        <time>2017-07-06T13:46:56Z</time>
      </trkpt>
      <trkpt lat="44.71504" lon="5.87081">
        <ele>1400.74</ele>
        <time>2017-07-06T13:47:13Z</time>
      </trkpt>
      <trkpt lat="44.71501" lon="5.87108">
        <ele>1394.74</ele>
        <time>2017-07-06T13:47:31Z</time>
      </trkpt>
      <trkpt lat="44.71499" lon="5.87135">
        <ele>1391.9</ele>
        <time>2017-07-06T13:47:50Z</time>
      </trkpt>
      <trkpt lat="44.71496" lon="5.87161">
        <ele>1388.71</ele>
        <time>2017-07-06T13:48:08Z</time>
      </trkpt>
      <trkpt lat="44.71497" lon="5.87186">
        <ele>1387.58</ele>
        <time>2017-07-06T13:48:33Z</time>
      </trkpt>
      <trkpt lat="44.71483" lon="5.87202">
        <ele>1386.31</ele>
        <time>2017-07-06T13:49:48Z</time>
      </trkpt>
      <trkpt lat="44.71476" lon="5.87225">
        <ele>1377.98</ele>
        <time>2017-07-06T13:50:08Z</time>
      </trkpt>
      <trkpt lat="44.71468" lon="5.87249">
        <ele>1368.9</ele>
        <time>2017-07-06T13:50:28Z</time>
      </trkpt>
      <trkpt lat="44.7146" lon="5.87272">
        <ele>1367.69</ele>
        <time>2017-07-06T13:50:46Z</time>
      </trkpt>
      <trkpt lat="44.71451" lon="5.87294">
        <ele>1367.73</ele>
        <time>2017-07-06T13:51:01Z</time>
      </trkpt>
      <trkpt lat="44.71442" lon="5.87317">
        <ele>1367.74</ele>
        <time>2017-07-06T13:51:16Z</time>
      </trkpt>
      <trkpt lat="44.71435" lon="5.87342">
        <ele>1359.59</ele>
        <time>2017-07-06T13:51:36Z</time>
      </trkpt>
      <trkpt lat="44.71422" lon="5.8736">
        <ele>1358.91</ele>
        <time>2017-07-06T13:51:52Z</time>
      </trkpt>
      <trkpt lat="44.7141" lon="5.87381">
        <ele>1351.7</ele>
        <time>2017-07-06T13:52:11Z</time>
      </trkpt>
      <trkpt lat="44.714" lon="5.87404">
        <ele>1345.15</ele>
        <time>2017-07-06T13:52:27Z</time>
      </trkpt>
      <trkpt lat="44.71386" lon="5.87422">
        <ele>1343.5</ele>
        <time>2017-07-06T13:52:43Z</time>
      </trkpt>
      <trkpt lat="44.71376" lon="5.87444">
        <ele>1344.58</ele>
        <time>2017-07-06T13:53:00Z</time>
      </trkpt>
      <trkpt lat="44.71364" lon="5.87464">
        <ele>1343.58</ele>
        <time>2017-07-06T13:53:18Z</time>
      </trkpt>
      <trkpt lat="44.71352" lon="5.87485">
        <ele>1330.38</ele>
        <time>2017-07-06T13:53:47Z</time>
      </trkpt>
      <trkpt lat="44.71343" lon="5.87508">
        <ele>1321.54</ele>
        <time>2017-07-06T13:54:07Z</time>
      </trkpt>
      <trkpt lat="44.71334" lon="5.87531">
        <ele>1320.78</ele>
        <time>2017-07-06T13:54:23Z</time>
      </trkpt>
      <trkpt lat="44.71322" lon="5.87552">
        <ele>1317.74</ele>
        <time>2017-07-06T13:54:43Z</time>
      </trkpt>
      <trkpt lat="44.71312" lon="5.87576">
        <ele>1319.59</ele>
        <time>2017-07-06T13:54:58Z</time>
      </trkpt>
      <trkpt lat="44.71296" lon="5.87591">
        <ele>1312.74</ele>
        <time>2017-07-06T13:55:17Z</time>
      </trkpt>
      <trkpt lat="44.71285" lon="5.87615">
        <ele>1312.55</ele>
        <time>2017-07-06T13:55:32Z</time>
      </trkpt>
      <trkpt lat="44.71266" lon="5.87622">
        <ele>1311.27</ele>
        <time>2017-07-06T13:55:46Z</time>
      </trkpt>
      <trkpt lat="44.71258" lon="5.87647">
        <ele>1310.93</ele>
        <time>2017-07-06T13:56:05Z</time>
      </trkpt>
      <trkpt lat="44.7125" lon="5.8767">
        <ele>1304.19</ele>
        <time>2017-07-06T13:56:24Z</time>
      </trkpt>
      <trkpt lat="44.71236" lon="5.87688">
        <ele>1301.58</ele>
        <time>2017-07-06T13:56:37Z</time>
      </trkpt>
      <trkpt lat="44.71223" lon="5.87707">
        <ele>1299.17</ele>
        <time>2017-07-06T13:56:58Z</time>
      </trkpt>
      <trkpt lat="44.71214" lon="5.8773">
        <ele>1294.55</ele>
        <time>2017-07-06T13:57:17Z</time>
      </trkpt>
      <trkpt lat="44.71232" lon="5.87738">
        <ele>1289.56</ele>
        <time>2017-07-06T13:57:33Z</time>
      </trkpt>
      <trkpt lat="44.7125" lon="5.87739">
        <ele>1288.7</ele>
        <time>2017-07-06T13:57:50Z</time>
      </trkpt>
      <trkpt lat="44.71269" lon="5.87738">
        <ele>1282.38</ele>
        <time>2017-07-06T13:58:16Z</time>
      </trkpt>
      <trkpt lat="44.71286" lon="5.87753">
        <ele>1279.55</ele>
        <time>2017-07-06T13:58:30Z</time>
      </trkpt>
      <trkpt lat="44.71295" lon="5.87775">
        <ele>1277.94</ele>
        <time>2017-07-06T13:58:50Z</time>
      </trkpt>
      <trkpt lat="44.71296" lon="5.87801">
        <ele>1271.03</ele>
        <time>2017-07-06T13:59:03Z</time>
      </trkpt>
      <trkpt lat="44.71306" lon="5.87825">
        <ele>1270.35</ele>
        <time>2017-07-06T13:59:21Z</time>
      </trkpt>
      <trkpt lat="44.7131" lon="5.87851">
        <ele>1273.73</ele>
        <time>2017-07-06T13:59:39Z</time>
      </trkpt>
      <trkpt lat="44.71314" lon="5.87877">
        <ele>1262.58</ele>
        <time>2017-07-06T13:59:58Z</time>
      </trkpt>
      <trkpt lat="44.71331" lon="5.87884">
        <ele>1257.79</ele>
        <time>2017-07-06T14:00:12Z</time>
      </trkpt>
      <trkpt lat="44.71348" lon="5.87872">
        <ele>1262.68</ele>
        <time>2017-07-06T14:00:25Z</time>
      </trkpt>
      <trkpt lat="44.71357" lon="5.87895">
        <ele>1252.54</ele>
        <time>2017-07-06T14:00:50Z</time>
      </trkpt>
      <trkpt lat="44.71351" lon="5.87919">
        <ele>1253.75</ele>
        <time>2017-07-06T14:01:05Z</time>
      </trkpt>
      <trkpt lat="44.71341" lon="5.87941">
        <ele>1258.53</ele>
        <time>2017-07-06T14:01:21Z</time>
      </trkpt>
      <trkpt lat="44.71326" lon="5.87955">
        <ele>1253.52</ele>
        <time>2017-07-06T14:01:37Z</time>
      </trkpt>
      <trkpt lat="44.71321" lon="5.87981">
        <ele>1244.17</ele>
        <time>2017-07-06T14:01:54Z</time>
      </trkpt>
      <trkpt lat="44.71329" lon="5.88005">
        <ele>1240.77</ele>
        <time>2017-07-06T14:02:08Z</time>
      </trkpt>
      <trkpt lat="44.71334" lon="5.88029">
        <ele>1241.5</ele>
        <time>2017-07-06T14:02:25Z</time>
      </trkpt>
      <trkpt lat="44.71346" lon="5.8805">
        <ele>1249.35</ele>
        <time>2017-07-06T14:02:40Z</time>
      </trkpt>
      <trkpt lat="44.71354" lon="5.88074">
        <ele>1245.54</ele>
        <time>2017-07-06T14:02:54Z</time>
      </trkpt>
      <trkpt lat="44.71365" lon="5.88094">
        <ele>1238.13</ele>
        <time>2017-07-06T14:03:13Z</time>
      </trkpt>
      <trkpt lat="44.71351" lon="5.88112">
        <ele>1234.74</ele>
        <time>2017-07-06T14:03:45Z</time>
      </trkpt>
    </trkseg>
  </trk>
</gpx>